<?xml version="1.0" encoding="UTF-8" standalone="no" ?>
<gpx xmlns="http://www.topografix.com/GPX/1/1" xmlns:xsi="http://www.w3.org/2001/XMLSchema-instance" xsi:schemaLocation="http://www.topografix.com/GPX/1/1 http://www.topografix.com/GPX/1/1/gpx.xsd" version="1.1" creator="VisuGPX - https://www.visugpx.com">
  <metadata>
    <name>Mont Tournier</name>
    <desc><![CDATA[parcours de 2h30]]></desc>
  </metadata>
  <trk>
    <name><![CDATA[Parcours 2012-05-02 14:13]]></name>
    <trkseg>
      <trkpt lat="45.62583" lon="5.72611">
        <ele>735.59997558594</ele>
        <time>2012-05-02T12:17:22Z</time>
      </trkpt>
      <trkpt lat="45.62599" lon="5.72595">
        <ele>734.80004882812</ele>
        <time>2012-05-02T12:17:46Z</time>
      </trkpt>
      <trkpt lat="45.62622" lon="5.72576">
        <ele>735.59997558594</ele>
        <time>2012-05-02T12:18:10Z</time>
      </trkpt>
      <trkpt lat="45.6264" lon="5.72556">
        <ele>737.80004882812</ele>
        <time>2012-05-02T12:18:29Z</time>
      </trkpt>
      <trkpt lat="45.62656" lon="5.72539">
        <ele>739.5</ele>
        <time>2012-05-02T12:18:46Z</time>
      </trkpt>
      <trkpt lat="45.62674" lon="5.72525">
        <ele>738.90002441406</ele>
        <time>2012-05-02T12:19:01Z</time>
      </trkpt>
      <trkpt lat="45.62689" lon="5.72509">
        <ele>741</ele>
        <time>2012-05-02T12:19:18Z</time>
      </trkpt>
      <trkpt lat="45.62704" lon="5.72492">
        <ele>744.40002441406</ele>
        <time>2012-05-02T12:19:33Z</time>
      </trkpt>
      <trkpt lat="45.62721" lon="5.72482">
        <ele>746.09997558594</ele>
        <time>2012-05-02T12:19:50Z</time>
      </trkpt>
      <trkpt lat="45.6273" lon="5.72477">
        <ele>744.80004882812</ele>
        <time>2012-05-02T12:19:59Z</time>
      </trkpt>
      <trkpt lat="45.62738" lon="5.72472">
        <ele>744.69995117188</ele>
        <time>2012-05-02T12:20:05Z</time>
      </trkpt>
      <trkpt lat="45.62758" lon="5.72461">
        <ele>742.80004882812</ele>
        <time>2012-05-02T12:20:13Z</time>
      </trkpt>
      <trkpt lat="45.62779" lon="5.72452">
        <ele>742.30004882812</ele>
        <time>2012-05-02T12:20:22Z</time>
      </trkpt>
      <trkpt lat="45.62798" lon="5.72442">
        <ele>743.40002441406</ele>
        <time>2012-05-02T12:20:38Z</time>
      </trkpt>
      <trkpt lat="45.62816" lon="5.72434">
        <ele>746.30004882812</ele>
        <time>2012-05-02T12:20:50Z</time>
      </trkpt>
      <trkpt lat="45.62836" lon="5.7242">
        <ele>747.90002441406</ele>
        <time>2012-05-02T12:21:08Z</time>
      </trkpt>
      <trkpt lat="45.62849" lon="5.72402">
        <ele>746.80004882812</ele>
        <time>2012-05-02T12:21:27Z</time>
      </trkpt>
      <trkpt lat="45.62855" lon="5.72391">
        <ele>747.80004882812</ele>
        <time>2012-05-02T12:21:34Z</time>
      </trkpt>
      <trkpt lat="45.62867" lon="5.72368">
        <ele>749.80004882812</ele>
        <time>2012-05-02T12:21:50Z</time>
      </trkpt>
      <trkpt lat="45.62875" lon="5.72359">
        <ele>749.69995117188</ele>
        <time>2012-05-02T12:21:56Z</time>
      </trkpt>
      <trkpt lat="45.62879" lon="5.72346">
        <ele>753.90002441406</ele>
        <time>2012-05-02T12:22:06Z</time>
      </trkpt>
      <trkpt lat="45.62891" lon="5.72324">
        <ele>755</ele>
        <time>2012-05-02T12:22:23Z</time>
      </trkpt>
      <trkpt lat="45.62898" lon="5.72315">
        <ele>753.5</ele>
        <time>2012-05-02T12:22:30Z</time>
      </trkpt>
      <trkpt lat="45.62905" lon="5.72304">
        <ele>754.40002441406</ele>
        <time>2012-05-02T12:22:36Z</time>
      </trkpt>
      <trkpt lat="45.62912" lon="5.72294">
        <ele>754.59997558594</ele>
        <time>2012-05-02T12:22:41Z</time>
      </trkpt>
      <trkpt lat="45.62917" lon="5.72283">
        <ele>755.30004882812</ele>
        <time>2012-05-02T12:22:46Z</time>
      </trkpt>
      <trkpt lat="45.62918" lon="5.7227">
        <ele>758.19995117188</ele>
        <time>2012-05-02T12:22:54Z</time>
      </trkpt>
      <trkpt lat="45.62918" lon="5.72255">
        <ele>759.69995117188</ele>
        <time>2012-05-02T12:23:02Z</time>
      </trkpt>
      <trkpt lat="45.62921" lon="5.72243">
        <ele>759.09997558594</ele>
        <time>2012-05-02T12:23:10Z</time>
      </trkpt>
      <trkpt lat="45.62925" lon="5.7223">
        <ele>757.59997558594</ele>
        <time>2012-05-02T12:23:18Z</time>
      </trkpt>
      <trkpt lat="45.62936" lon="5.72208">
        <ele>758.40002441406</ele>
        <time>2012-05-02T12:23:35Z</time>
      </trkpt>
      <trkpt lat="45.62946" lon="5.72184">
        <ele>762.40002441406</ele>
        <time>2012-05-02T12:23:52Z</time>
      </trkpt>
      <trkpt lat="45.62958" lon="5.72165">
        <ele>764.69995117188</ele>
        <time>2012-05-02T12:24:08Z</time>
      </trkpt>
      <trkpt lat="45.6297" lon="5.72145">
        <ele>764.19995117188</ele>
        <time>2012-05-02T12:24:21Z</time>
      </trkpt>
      <trkpt lat="45.62983" lon="5.72124">
        <ele>762</ele>
        <time>2012-05-02T12:24:31Z</time>
      </trkpt>
      <trkpt lat="45.62994" lon="5.72102">
        <ele>764</ele>
        <time>2012-05-02T12:24:45Z</time>
      </trkpt>
      <trkpt lat="45.63005" lon="5.72078">
        <ele>768</ele>
        <time>2012-05-02T12:25:02Z</time>
      </trkpt>
      <trkpt lat="45.63019" lon="5.7206">
        <ele>774.69995117188</ele>
        <time>2012-05-02T12:25:18Z</time>
      </trkpt>
      <trkpt lat="45.63036" lon="5.7205">
        <ele>778.30004882812</ele>
        <time>2012-05-02T12:25:38Z</time>
      </trkpt>
      <trkpt lat="45.63054" lon="5.7204">
        <ele>782</ele>
        <time>2012-05-02T12:25:57Z</time>
      </trkpt>
      <trkpt lat="45.63073" lon="5.72034">
        <ele>782.40002441406</ele>
        <time>2012-05-02T12:26:09Z</time>
      </trkpt>
      <trkpt lat="45.63096" lon="5.72031">
        <ele>785.80004882812</ele>
        <time>2012-05-02T12:26:28Z</time>
      </trkpt>
      <trkpt lat="45.63116" lon="5.72019">
        <ele>786.19995117188</ele>
        <time>2012-05-02T12:26:46Z</time>
      </trkpt>
      <trkpt lat="45.63135" lon="5.7201">
        <ele>788.90002441406</ele>
        <time>2012-05-02T12:27:02Z</time>
      </trkpt>
      <trkpt lat="45.63151" lon="5.71997">
        <ele>788.19995117188</ele>
        <time>2012-05-02T12:27:15Z</time>
      </trkpt>
      <trkpt lat="45.63169" lon="5.7198">
        <ele>788.69995117188</ele>
        <time>2012-05-02T12:27:30Z</time>
      </trkpt>
      <trkpt lat="45.63185" lon="5.71966">
        <ele>793.69995117188</ele>
        <time>2012-05-02T12:27:51Z</time>
      </trkpt>
      <trkpt lat="45.63195" lon="5.71943">
        <ele>789.80004882812</ele>
        <time>2012-05-02T12:28:04Z</time>
      </trkpt>
      <trkpt lat="45.63211" lon="5.71927">
        <ele>790.09997558594</ele>
        <time>2012-05-02T12:28:24Z</time>
      </trkpt>
      <trkpt lat="45.63232" lon="5.71909">
        <ele>793.69995117188</ele>
        <time>2012-05-02T12:28:47Z</time>
      </trkpt>
      <trkpt lat="45.63247" lon="5.71891">
        <ele>796</ele>
        <time>2012-05-02T12:29:08Z</time>
      </trkpt>
      <trkpt lat="45.6326" lon="5.7187">
        <ele>792.90002441406</ele>
        <time>2012-05-02T12:29:19Z</time>
      </trkpt>
      <trkpt lat="45.63271" lon="5.71849">
        <ele>796.90002441406</ele>
        <time>2012-05-02T12:29:40Z</time>
      </trkpt>
      <trkpt lat="45.63284" lon="5.71829">
        <ele>801.30004882812</ele>
        <time>2012-05-02T12:29:58Z</time>
      </trkpt>
      <trkpt lat="45.63297" lon="5.71806">
        <ele>801.5</ele>
        <time>2012-05-02T12:30:14Z</time>
      </trkpt>
      <trkpt lat="45.63308" lon="5.71784">
        <ele>802.30004882812</ele>
        <time>2012-05-02T12:30:29Z</time>
      </trkpt>
      <trkpt lat="45.63314" lon="5.71758">
        <ele>800</ele>
        <time>2012-05-02T12:30:45Z</time>
      </trkpt>
      <trkpt lat="45.6332" lon="5.71732">
        <ele>807.40002441406</ele>
        <time>2012-05-02T12:31:05Z</time>
      </trkpt>
      <trkpt lat="45.63321" lon="5.71704">
        <ele>806.90002441406</ele>
        <time>2012-05-02T12:31:18Z</time>
      </trkpt>
      <trkpt lat="45.63322" lon="5.71676">
        <ele>808.09997558594</ele>
        <time>2012-05-02T12:31:31Z</time>
      </trkpt>
      <trkpt lat="45.63324" lon="5.71648">
        <ele>810.30004882812</ele>
        <time>2012-05-02T12:31:49Z</time>
      </trkpt>
      <trkpt lat="45.63326" lon="5.7162">
        <ele>812.90002441406</ele>
        <time>2012-05-02T12:32:03Z</time>
      </trkpt>
      <trkpt lat="45.63326" lon="5.71593">
        <ele>816.40002441406</ele>
        <time>2012-05-02T12:32:18Z</time>
      </trkpt>
      <trkpt lat="45.63326" lon="5.71567">
        <ele>817.09997558594</ele>
        <time>2012-05-02T12:32:30Z</time>
      </trkpt>
      <trkpt lat="45.63326" lon="5.71551">
        <ele>817.19995117188</ele>
        <time>2012-05-02T12:32:37Z</time>
      </trkpt>
      <trkpt lat="45.63328" lon="5.71538">
        <ele>819.40002441406</ele>
        <time>2012-05-02T12:32:42Z</time>
      </trkpt>
      <trkpt lat="45.6333" lon="5.71521">
        <ele>820.40002441406</ele>
        <time>2012-05-02T12:32:46Z</time>
      </trkpt>
      <trkpt lat="45.63327" lon="5.71486">
        <ele>822</ele>
        <time>2012-05-02T12:32:52Z</time>
      </trkpt>
      <trkpt lat="45.63317" lon="5.71456">
        <ele>823</ele>
        <time>2012-05-02T12:32:56Z</time>
      </trkpt>
      <trkpt lat="45.63309" lon="5.7143">
        <ele>823.5</ele>
        <time>2012-05-02T12:33:01Z</time>
      </trkpt>
      <trkpt lat="45.63305" lon="5.714">
        <ele>824.09997558594</ele>
        <time>2012-05-02T12:33:05Z</time>
      </trkpt>
      <trkpt lat="45.63303" lon="5.7137">
        <ele>824.80004882812</ele>
        <time>2012-05-02T12:33:09Z</time>
      </trkpt>
      <trkpt lat="45.6331" lon="5.71338">
        <ele>826.5</ele>
        <time>2012-05-02T12:33:14Z</time>
      </trkpt>
      <trkpt lat="45.63329" lon="5.71317">
        <ele>830.30004882812</ele>
        <time>2012-05-02T12:33:18Z</time>
      </trkpt>
      <trkpt lat="45.63348" lon="5.71325">
        <ele>833.69995117188</ele>
        <time>2012-05-02T12:33:33Z</time>
      </trkpt>
      <trkpt lat="45.63357" lon="5.71329">
        <ele>836.59997558594</ele>
        <time>2012-05-02T12:33:41Z</time>
      </trkpt>
      <trkpt lat="45.63365" lon="5.71335">
        <ele>837.30004882812</ele>
        <time>2012-05-02T12:33:50Z</time>
      </trkpt>
      <trkpt lat="45.63382" lon="5.71324">
        <ele>838.30004882812</ele>
        <time>2012-05-02T12:34:06Z</time>
      </trkpt>
      <trkpt lat="45.634" lon="5.71311">
        <ele>838.69995117188</ele>
        <time>2012-05-02T12:34:12Z</time>
      </trkpt>
      <trkpt lat="45.63417" lon="5.71297">
        <ele>840.19995117188</ele>
        <time>2012-05-02T12:34:17Z</time>
      </trkpt>
      <trkpt lat="45.63438" lon="5.71283">
        <ele>840.5</ele>
        <time>2012-05-02T12:34:22Z</time>
      </trkpt>
      <trkpt lat="45.63468" lon="5.71271">
        <ele>846.19995117188</ele>
        <time>2012-05-02T12:34:33Z</time>
      </trkpt>
      <trkpt lat="45.63487" lon="5.71272">
        <ele>849.80004882812</ele>
        <time>2012-05-02T12:34:51Z</time>
      </trkpt>
      <trkpt lat="45.63501" lon="5.71248">
        <ele>849.80004882812</ele>
        <time>2012-05-02T12:35:00Z</time>
      </trkpt>
      <trkpt lat="45.63517" lon="5.71229">
        <ele>850.19995117188</ele>
        <time>2012-05-02T12:35:07Z</time>
      </trkpt>
      <trkpt lat="45.63535" lon="5.71219">
        <ele>851</ele>
        <time>2012-05-02T12:35:18Z</time>
      </trkpt>
      <trkpt lat="45.63553" lon="5.71224">
        <ele>852.69995117188</ele>
        <time>2012-05-02T12:35:35Z</time>
      </trkpt>
      <trkpt lat="45.63572" lon="5.71224">
        <ele>855.09997558594</ele>
        <time>2012-05-02T12:35:48Z</time>
      </trkpt>
      <trkpt lat="45.63589" lon="5.71229">
        <ele>857.59997558594</ele>
        <time>2012-05-02T12:36:01Z</time>
      </trkpt>
      <trkpt lat="45.63607" lon="5.71242">
        <ele>858.5</ele>
        <time>2012-05-02T12:36:15Z</time>
      </trkpt>
      <trkpt lat="45.63622" lon="5.71257">
        <ele>862.5</ele>
        <time>2012-05-02T12:36:29Z</time>
      </trkpt>
      <trkpt lat="45.63639" lon="5.71245">
        <ele>867.40002441406</ele>
        <time>2012-05-02T12:36:53Z</time>
      </trkpt>
      <trkpt lat="45.63647" lon="5.71251">
        <ele>867.40002441406</ele>
        <time>2012-05-02T12:37:00Z</time>
      </trkpt>
      <trkpt lat="45.63664" lon="5.71263">
        <ele>868.40002441406</ele>
        <time>2012-05-02T12:37:11Z</time>
      </trkpt>
      <trkpt lat="45.63682" lon="5.71265">
        <ele>866.80004882812</ele>
        <time>2012-05-02T12:37:29Z</time>
      </trkpt>
      <trkpt lat="45.637" lon="5.71276">
        <ele>867</ele>
        <time>2012-05-02T12:37:43Z</time>
      </trkpt>
      <trkpt lat="45.63708" lon="5.71284">
        <ele>867.5</ele>
        <time>2012-05-02T12:37:49Z</time>
      </trkpt>
      <trkpt lat="45.63727" lon="5.71294">
        <ele>866.90002441406</ele>
        <time>2012-05-02T12:38:03Z</time>
      </trkpt>
      <trkpt lat="45.63735" lon="5.71301">
        <ele>866.19995117188</ele>
        <time>2012-05-02T12:38:10Z</time>
      </trkpt>
      <trkpt lat="45.63754" lon="5.7131">
        <ele>864</ele>
        <time>2012-05-02T12:38:25Z</time>
      </trkpt>
      <trkpt lat="45.63762" lon="5.71314">
        <ele>862.59997558594</ele>
        <time>2012-05-02T12:38:32Z</time>
      </trkpt>
      <trkpt lat="45.63772" lon="5.71315">
        <ele>861.19995117188</ele>
        <time>2012-05-02T12:38:39Z</time>
      </trkpt>
      <trkpt lat="45.63782" lon="5.71316">
        <ele>860.90002441406</ele>
        <time>2012-05-02T12:38:46Z</time>
      </trkpt>
      <trkpt lat="45.63791" lon="5.71313">
        <ele>861</ele>
        <time>2012-05-02T12:38:54Z</time>
      </trkpt>
      <trkpt lat="45.63799" lon="5.71307">
        <ele>859.90002441406</ele>
        <time>2012-05-02T12:39:02Z</time>
      </trkpt>
      <trkpt lat="45.63807" lon="5.71298">
        <ele>859</ele>
        <time>2012-05-02T12:39:10Z</time>
      </trkpt>
      <trkpt lat="45.63814" lon="5.71289">
        <ele>857.90002441406</ele>
        <time>2012-05-02T12:39:18Z</time>
      </trkpt>
      <trkpt lat="45.63831" lon="5.71272">
        <ele>856.19995117188</ele>
        <time>2012-05-02T12:39:32Z</time>
      </trkpt>
      <trkpt lat="45.63847" lon="5.71256">
        <ele>856.19995117188</ele>
        <time>2012-05-02T12:39:45Z</time>
      </trkpt>
      <trkpt lat="45.63865" lon="5.71244">
        <ele>856.90002441406</ele>
        <time>2012-05-02T12:39:59Z</time>
      </trkpt>
      <trkpt lat="45.63893" lon="5.71262">
        <ele>855.90002441406</ele>
        <time>2012-05-02T12:40:18Z</time>
      </trkpt>
      <trkpt lat="45.63912" lon="5.71269">
        <ele>855.19995117188</ele>
        <time>2012-05-02T12:40:31Z</time>
      </trkpt>
      <trkpt lat="45.63921" lon="5.71271">
        <ele>854.40002441406</ele>
        <time>2012-05-02T12:40:38Z</time>
      </trkpt>
      <trkpt lat="45.63931" lon="5.71268">
        <ele>853.19995117188</ele>
        <time>2012-05-02T12:40:45Z</time>
      </trkpt>
      <trkpt lat="45.6395" lon="5.71263">
        <ele>854.30004882812</ele>
        <time>2012-05-02T12:41:01Z</time>
      </trkpt>
      <trkpt lat="45.63948" lon="5.71228">
        <ele>851.09997558594</ele>
        <time>2012-05-02T12:41:27Z</time>
      </trkpt>
      <trkpt lat="45.63944" lon="5.71201">
        <ele>851.30004882812</ele>
        <time>2012-05-02T12:41:40Z</time>
      </trkpt>
      <trkpt lat="45.63947" lon="5.71173">
        <ele>852.69995117188</ele>
        <time>2012-05-02T12:41:56Z</time>
      </trkpt>
      <trkpt lat="45.63953" lon="5.71147">
        <ele>854.19995117188</ele>
        <time>2012-05-02T12:42:08Z</time>
      </trkpt>
      <trkpt lat="45.63959" lon="5.71119">
        <ele>858.40002441406</ele>
        <time>2012-05-02T12:42:22Z</time>
      </trkpt>
      <trkpt lat="45.63963" lon="5.71092">
        <ele>860.90002441406</ele>
        <time>2012-05-02T12:42:42Z</time>
      </trkpt>
      <trkpt lat="45.63971" lon="5.71067">
        <ele>861.30004882812</ele>
        <time>2012-05-02T12:42:57Z</time>
      </trkpt>
      <trkpt lat="45.63982" lon="5.71044">
        <ele>860.90002441406</ele>
        <time>2012-05-02T12:43:09Z</time>
      </trkpt>
      <trkpt lat="45.63988" lon="5.71017">
        <ele>862.69995117188</ele>
        <time>2012-05-02T12:43:25Z</time>
      </trkpt>
      <trkpt lat="45.63994" lon="5.71005">
        <ele>861.40002441406</ele>
        <time>2012-05-02T12:43:31Z</time>
      </trkpt>
      <trkpt lat="45.63997" lon="5.70992">
        <ele>861.69995117188</ele>
        <time>2012-05-02T12:43:40Z</time>
      </trkpt>
      <trkpt lat="45.64" lon="5.70966">
        <ele>864.30004882812</ele>
        <time>2012-05-02T12:43:58Z</time>
      </trkpt>
      <trkpt lat="45.64007" lon="5.70938">
        <ele>866.90002441406</ele>
        <time>2012-05-02T12:44:13Z</time>
      </trkpt>
      <trkpt lat="45.64014" lon="5.70913">
        <ele>870.30004882812</ele>
        <time>2012-05-02T12:44:24Z</time>
      </trkpt>
      <trkpt lat="45.64023" lon="5.70889">
        <ele>872.69995117188</ele>
        <time>2012-05-02T12:44:39Z</time>
      </trkpt>
      <trkpt lat="45.64033" lon="5.70864">
        <ele>878.5</ele>
        <time>2012-05-02T12:44:53Z</time>
      </trkpt>
      <trkpt lat="45.64044" lon="5.70841">
        <ele>878.90002441406</ele>
        <time>2012-05-02T12:45:07Z</time>
      </trkpt>
      <trkpt lat="45.64061" lon="5.70809">
        <ele>879.59997558594</ele>
        <time>2012-05-02T12:45:28Z</time>
      </trkpt>
      <trkpt lat="45.64075" lon="5.70789">
        <ele>883.5</ele>
        <time>2012-05-02T12:45:39Z</time>
      </trkpt>
      <trkpt lat="45.64088" lon="5.70768">
        <ele>886.40002441406</ele>
        <time>2012-05-02T12:45:53Z</time>
      </trkpt>
      <trkpt lat="45.64101" lon="5.7075">
        <ele>891.09997558594</ele>
        <time>2012-05-02T12:46:07Z</time>
      </trkpt>
      <trkpt lat="45.64108" lon="5.70741">
        <ele>891.69995117188</ele>
        <time>2012-05-02T12:46:14Z</time>
      </trkpt>
      <trkpt lat="45.64116" lon="5.70717">
        <ele>895.30004882812</ele>
        <time>2012-05-02T12:46:30Z</time>
      </trkpt>
      <trkpt lat="45.64123" lon="5.70707">
        <ele>896.69995117188</ele>
        <time>2012-05-02T12:46:37Z</time>
      </trkpt>
      <trkpt lat="45.64129" lon="5.70697">
        <ele>898.19995117188</ele>
        <time>2012-05-02T12:46:45Z</time>
      </trkpt>
      <trkpt lat="45.64112" lon="5.70709">
        <ele>899.09997558594</ele>
        <time>2012-05-02T12:47:21Z</time>
      </trkpt>
      <trkpt lat="45.64104" lon="5.70715">
        <ele>900.59997558594</ele>
        <time>2012-05-02T12:47:27Z</time>
      </trkpt>
      <trkpt lat="45.64095" lon="5.70721">
        <ele>900.80004882812</ele>
        <time>2012-05-02T12:47:36Z</time>
      </trkpt>
      <trkpt lat="45.64081" lon="5.7074">
        <ele>902.19995117188</ele>
        <time>2012-05-02T12:47:54Z</time>
      </trkpt>
      <trkpt lat="45.64066" lon="5.70756">
        <ele>903.09997558594</ele>
        <time>2012-05-02T12:48:08Z</time>
      </trkpt>
      <trkpt lat="45.64048" lon="5.70763">
        <ele>904.5</ele>
        <time>2012-05-02T12:48:22Z</time>
      </trkpt>
      <trkpt lat="45.64029" lon="5.70766">
        <ele>907.40002441406</ele>
        <time>2012-05-02T12:48:37Z</time>
      </trkpt>
      <trkpt lat="45.6401" lon="5.70767">
        <ele>909.40002441406</ele>
        <time>2012-05-02T12:48:55Z</time>
      </trkpt>
      <trkpt lat="45.63981" lon="5.70769">
        <ele>908.19995117188</ele>
        <time>2012-05-02T12:49:20Z</time>
      </trkpt>
      <trkpt lat="45.63958" lon="5.7079">
        <ele>908.59997558594</ele>
        <time>2012-05-02T12:49:44Z</time>
      </trkpt>
      <trkpt lat="45.63941" lon="5.70806">
        <ele>909.90002441406</ele>
        <time>2012-05-02T12:50:00Z</time>
      </trkpt>
      <trkpt lat="45.63924" lon="5.70816">
        <ele>908.30004882812</ele>
        <time>2012-05-02T12:50:12Z</time>
      </trkpt>
      <trkpt lat="45.63908" lon="5.70834">
        <ele>909.40002441406</ele>
        <time>2012-05-02T12:50:28Z</time>
      </trkpt>
      <trkpt lat="45.63892" lon="5.70849">
        <ele>910.90002441406</ele>
        <time>2012-05-02T12:50:40Z</time>
      </trkpt>
      <trkpt lat="45.63874" lon="5.70861">
        <ele>909.5</ele>
        <time>2012-05-02T12:50:55Z</time>
      </trkpt>
      <trkpt lat="45.63857" lon="5.7087">
        <ele>909.30004882812</ele>
        <time>2012-05-02T12:51:06Z</time>
      </trkpt>
      <trkpt lat="45.63839" lon="5.70876">
        <ele>908.40002441406</ele>
        <time>2012-05-02T12:51:20Z</time>
      </trkpt>
      <trkpt lat="45.63819" lon="5.70882">
        <ele>908.80004882812</ele>
        <time>2012-05-02T12:51:38Z</time>
      </trkpt>
      <trkpt lat="45.638" lon="5.70886">
        <ele>908</ele>
        <time>2012-05-02T12:51:49Z</time>
      </trkpt>
      <trkpt lat="45.63781" lon="5.70889">
        <ele>908.69995117188</ele>
        <time>2012-05-02T12:52:05Z</time>
      </trkpt>
      <trkpt lat="45.63762" lon="5.70897">
        <ele>907.09997558594</ele>
        <time>2012-05-02T12:52:17Z</time>
      </trkpt>
      <trkpt lat="45.63752" lon="5.709">
        <ele>906.40002441406</ele>
        <time>2012-05-02T12:52:26Z</time>
      </trkpt>
      <trkpt lat="45.63744" lon="5.70909">
        <ele>907</ele>
        <time>2012-05-02T12:52:33Z</time>
      </trkpt>
      <trkpt lat="45.63737" lon="5.70918">
        <ele>907.69995117188</ele>
        <time>2012-05-02T12:52:40Z</time>
      </trkpt>
      <trkpt lat="45.63732" lon="5.70929">
        <ele>907.30004882812</ele>
        <time>2012-05-02T12:52:48Z</time>
      </trkpt>
      <trkpt lat="45.63726" lon="5.70938">
        <ele>907.5</ele>
        <time>2012-05-02T12:52:56Z</time>
      </trkpt>
      <trkpt lat="45.63718" lon="5.70946">
        <ele>907.19995117188</ele>
        <time>2012-05-02T12:53:02Z</time>
      </trkpt>
      <trkpt lat="45.63709" lon="5.70948">
        <ele>905.09997558594</ele>
        <time>2012-05-02T12:53:07Z</time>
      </trkpt>
      <trkpt lat="45.63699" lon="5.70949">
        <ele>904</ele>
        <time>2012-05-02T12:53:14Z</time>
      </trkpt>
      <trkpt lat="45.6369" lon="5.70946">
        <ele>903.59997558594</ele>
        <time>2012-05-02T12:53:22Z</time>
      </trkpt>
      <trkpt lat="45.63681" lon="5.70942">
        <ele>902.90002441406</ele>
        <time>2012-05-02T12:53:29Z</time>
      </trkpt>
      <trkpt lat="45.63662" lon="5.70937">
        <ele>903.59997558594</ele>
        <time>2012-05-02T12:53:43Z</time>
      </trkpt>
      <trkpt lat="45.63652" lon="5.70933">
        <ele>904.59997558594</ele>
        <time>2012-05-02T12:53:51Z</time>
      </trkpt>
      <trkpt lat="45.63633" lon="5.70932">
        <ele>903.69995117188</ele>
        <time>2012-05-02T12:54:09Z</time>
      </trkpt>
      <trkpt lat="45.63613" lon="5.70932">
        <ele>903.90002441406</ele>
        <time>2012-05-02T12:54:25Z</time>
      </trkpt>
      <trkpt lat="45.63592" lon="5.70932">
        <ele>901.09997558594</ele>
        <time>2012-05-02T12:54:39Z</time>
      </trkpt>
      <trkpt lat="45.63574" lon="5.70932">
        <ele>900.09997558594</ele>
        <time>2012-05-02T12:54:53Z</time>
      </trkpt>
      <trkpt lat="45.63554" lon="5.70931">
        <ele>900.19995117188</ele>
        <time>2012-05-02T12:55:08Z</time>
      </trkpt>
      <trkpt lat="45.63535" lon="5.70932">
        <ele>900.19995117188</ele>
        <time>2012-05-02T12:55:22Z</time>
      </trkpt>
      <trkpt lat="45.63516" lon="5.70934">
        <ele>900.5</ele>
        <time>2012-05-02T12:55:36Z</time>
      </trkpt>
      <trkpt lat="45.63497" lon="5.70937">
        <ele>900.5</ele>
        <time>2012-05-02T12:55:49Z</time>
      </trkpt>
      <trkpt lat="45.63481" lon="5.70955">
        <ele>900.69995117188</ele>
        <time>2012-05-02T12:56:07Z</time>
      </trkpt>
      <trkpt lat="45.63463" lon="5.70964">
        <ele>898.90002441406</ele>
        <time>2012-05-02T12:56:19Z</time>
      </trkpt>
      <trkpt lat="45.63444" lon="5.70955">
        <ele>897.09997558594</ele>
        <time>2012-05-02T12:56:34Z</time>
      </trkpt>
      <trkpt lat="45.63424" lon="5.70948">
        <ele>894.5</ele>
        <time>2012-05-02T12:56:50Z</time>
      </trkpt>
      <trkpt lat="45.63415" lon="5.70946">
        <ele>895.09997558594</ele>
        <time>2012-05-02T12:56:58Z</time>
      </trkpt>
      <trkpt lat="45.63406" lon="5.70946">
        <ele>895.80004882812</ele>
        <time>2012-05-02T12:57:08Z</time>
      </trkpt>
      <trkpt lat="45.63386" lon="5.70948">
        <ele>896.59997558594</ele>
        <time>2012-05-02T12:57:23Z</time>
      </trkpt>
      <trkpt lat="45.63378" lon="5.70972">
        <ele>895.30004882812</ele>
        <time>2012-05-02T12:57:47Z</time>
      </trkpt>
      <trkpt lat="45.63374" lon="5.70985">
        <ele>895.69995117188</ele>
        <time>2012-05-02T12:57:55Z</time>
      </trkpt>
      <trkpt lat="45.63361" lon="5.71007">
        <ele>897.19995117188</ele>
        <time>2012-05-02T12:58:10Z</time>
      </trkpt>
      <trkpt lat="45.63344" lon="5.71023">
        <ele>896.40002441406</ele>
        <time>2012-05-02T12:58:19Z</time>
      </trkpt>
      <trkpt lat="45.63332" lon="5.71044">
        <ele>898</ele>
        <time>2012-05-02T12:58:35Z</time>
      </trkpt>
      <trkpt lat="45.63312" lon="5.71052">
        <ele>901.40002441406</ele>
        <time>2012-05-02T12:58:46Z</time>
      </trkpt>
      <trkpt lat="45.63292" lon="5.71045">
        <ele>901</ele>
        <time>2012-05-02T12:58:59Z</time>
      </trkpt>
      <trkpt lat="45.63273" lon="5.71042">
        <ele>898.80004882812</ele>
        <time>2012-05-02T12:59:09Z</time>
      </trkpt>
      <trkpt lat="45.63254" lon="5.71039">
        <ele>898.80004882812</ele>
        <time>2012-05-02T12:59:22Z</time>
      </trkpt>
      <trkpt lat="45.63234" lon="5.71037">
        <ele>898.90002441406</ele>
        <time>2012-05-02T12:59:39Z</time>
      </trkpt>
      <trkpt lat="45.63209" lon="5.71039">
        <ele>899.09997558594</ele>
        <time>2012-05-02T12:59:48Z</time>
      </trkpt>
      <trkpt lat="45.63185" lon="5.71041">
        <ele>899.09997558594</ele>
        <time>2012-05-02T12:59:52Z</time>
      </trkpt>
      <trkpt lat="45.63162" lon="5.71047">
        <ele>899.09997558594</ele>
        <time>2012-05-02T12:59:58Z</time>
      </trkpt>
      <trkpt lat="45.63146" lon="5.71064">
        <ele>898.19995117188</ele>
        <time>2012-05-02T13:00:09Z</time>
      </trkpt>
      <trkpt lat="45.63127" lon="5.71078">
        <ele>896.59997558594</ele>
        <time>2012-05-02T13:00:24Z</time>
      </trkpt>
      <trkpt lat="45.63125" lon="5.71106">
        <ele>897.59997558594</ele>
        <time>2012-05-02T13:00:41Z</time>
      </trkpt>
      <trkpt lat="45.63119" lon="5.7113">
        <ele>897.40002441406</ele>
        <time>2012-05-02T13:00:57Z</time>
      </trkpt>
      <trkpt lat="45.63107" lon="5.71154">
        <ele>898</ele>
        <time>2012-05-02T13:01:12Z</time>
      </trkpt>
      <trkpt lat="45.6309" lon="5.71167">
        <ele>896.19995117188</ele>
        <time>2012-05-02T13:01:21Z</time>
      </trkpt>
      <trkpt lat="45.63074" lon="5.71178">
        <ele>893.19995117188</ele>
        <time>2012-05-02T13:01:28Z</time>
      </trkpt>
      <trkpt lat="45.63061" lon="5.71197">
        <ele>894</ele>
        <time>2012-05-02T13:01:38Z</time>
      </trkpt>
      <trkpt lat="45.63046" lon="5.71217">
        <ele>894.69995117188</ele>
        <time>2012-05-02T13:01:51Z</time>
      </trkpt>
      <trkpt lat="45.63037" lon="5.71242">
        <ele>894.40002441406</ele>
        <time>2012-05-02T13:02:07Z</time>
      </trkpt>
      <trkpt lat="45.63023" lon="5.71264">
        <ele>893.80004882812</ele>
        <time>2012-05-02T13:02:19Z</time>
      </trkpt>
      <trkpt lat="45.63003" lon="5.71276">
        <ele>893.19995117188</ele>
        <time>2012-05-02T13:02:31Z</time>
      </trkpt>
      <trkpt lat="45.62983" lon="5.7128">
        <ele>897.09997558594</ele>
        <time>2012-05-02T13:02:45Z</time>
      </trkpt>
      <trkpt lat="45.62961" lon="5.71277">
        <ele>898.5</ele>
        <time>2012-05-02T13:02:52Z</time>
      </trkpt>
      <trkpt lat="45.62941" lon="5.71275">
        <ele>899.19995117188</ele>
        <time>2012-05-02T13:02:56Z</time>
      </trkpt>
      <trkpt lat="45.62922" lon="5.71273">
        <ele>899.59997558594</ele>
        <time>2012-05-02T13:03:00Z</time>
      </trkpt>
      <trkpt lat="45.62902" lon="5.71268">
        <ele>900</ele>
        <time>2012-05-02T13:03:04Z</time>
      </trkpt>
      <trkpt lat="45.62883" lon="5.71263">
        <ele>900.59997558594</ele>
        <time>2012-05-02T13:03:08Z</time>
      </trkpt>
      <trkpt lat="45.62862" lon="5.71264">
        <ele>901</ele>
        <time>2012-05-02T13:03:13Z</time>
      </trkpt>
      <trkpt lat="45.62838" lon="5.71276">
        <ele>902.40002441406</ele>
        <time>2012-05-02T13:03:19Z</time>
      </trkpt>
      <trkpt lat="45.62817" lon="5.71287">
        <ele>903.90002441406</ele>
        <time>2012-05-02T13:03:23Z</time>
      </trkpt>
      <trkpt lat="45.62795" lon="5.71293">
        <ele>904.69995117188</ele>
        <time>2012-05-02T13:03:27Z</time>
      </trkpt>
      <trkpt lat="45.62772" lon="5.71298">
        <ele>905.5</ele>
        <time>2012-05-02T13:03:31Z</time>
      </trkpt>
      <trkpt lat="45.6275" lon="5.71304">
        <ele>907.09997558594</ele>
        <time>2012-05-02T13:03:35Z</time>
      </trkpt>
      <trkpt lat="45.6272" lon="5.71313">
        <ele>908.5</ele>
        <time>2012-05-02T13:03:43Z</time>
      </trkpt>
      <trkpt lat="45.627" lon="5.7132">
        <ele>908</ele>
        <time>2012-05-02T13:03:51Z</time>
      </trkpt>
      <trkpt lat="45.62681" lon="5.71325">
        <ele>908.5</ele>
        <time>2012-05-02T13:04:04Z</time>
      </trkpt>
      <trkpt lat="45.62674" lon="5.71309">
        <ele>907.80004882812</ele>
        <time>2012-05-02T13:04:21Z</time>
      </trkpt>
      <trkpt lat="45.62688" lon="5.71292">
        <ele>909.30004882812</ele>
        <time>2012-05-02T13:04:35Z</time>
      </trkpt>
      <trkpt lat="45.62713" lon="5.71266">
        <ele>912.40002441406</ele>
        <time>2012-05-02T13:04:59Z</time>
      </trkpt>
      <trkpt lat="45.6274" lon="5.71255">
        <ele>918.69995117188</ele>
        <time>2012-05-02T13:06:28Z</time>
      </trkpt>
      <trkpt lat="45.62755" lon="5.71239">
        <ele>916.30004882812</ele>
        <time>2012-05-02T13:08:15Z</time>
      </trkpt>
      <trkpt lat="45.62774" lon="5.71231">
        <ele>919.40002441406</ele>
        <time>2012-05-02T13:08:29Z</time>
      </trkpt>
      <trkpt lat="45.62792" lon="5.71223">
        <ele>920.40002441406</ele>
        <time>2012-05-02T13:09:08Z</time>
      </trkpt>
      <trkpt lat="45.62809" lon="5.71212">
        <ele>920.80004882812</ele>
        <time>2012-05-02T13:09:26Z</time>
      </trkpt>
      <trkpt lat="45.62819" lon="5.71189">
        <ele>923.19995117188</ele>
        <time>2012-05-02T13:09:42Z</time>
      </trkpt>
      <trkpt lat="45.62837" lon="5.71168">
        <ele>913</ele>
        <time>2012-05-02T13:11:43Z</time>
      </trkpt>
      <trkpt lat="45.62849" lon="5.71149">
        <ele>913.90002441406</ele>
        <time>2012-05-02T13:11:58Z</time>
      </trkpt>
      <trkpt lat="45.62861" lon="5.71127">
        <ele>916.5</ele>
        <time>2012-05-02T13:12:15Z</time>
      </trkpt>
      <trkpt lat="45.62872" lon="5.71106">
        <ele>916.30004882812</ele>
        <time>2012-05-02T13:12:33Z</time>
      </trkpt>
      <trkpt lat="45.62872" lon="5.71092">
        <ele>918</ele>
        <time>2012-05-02T13:12:44Z</time>
      </trkpt>
      <trkpt lat="45.62869" lon="5.71079">
        <ele>918.69995117188</ele>
        <time>2012-05-02T13:12:53Z</time>
      </trkpt>
      <trkpt lat="45.62865" lon="5.71067">
        <ele>916.40002441406</ele>
        <time>2012-05-02T13:13:09Z</time>
      </trkpt>
      <trkpt lat="45.62863" lon="5.71053">
        <ele>914.19995117188</ele>
        <time>2012-05-02T13:13:18Z</time>
      </trkpt>
      <trkpt lat="45.62861" lon="5.71041">
        <ele>913.59997558594</ele>
        <time>2012-05-02T13:13:25Z</time>
      </trkpt>
      <trkpt lat="45.62859" lon="5.71027">
        <ele>911.69995117188</ele>
        <time>2012-05-02T13:13:33Z</time>
      </trkpt>
      <trkpt lat="45.62856" lon="5.71013">
        <ele>911.09997558594</ele>
        <time>2012-05-02T13:13:40Z</time>
      </trkpt>
      <trkpt lat="45.62854" lon="5.70998">
        <ele>910.09997558594</ele>
        <time>2012-05-02T13:13:47Z</time>
      </trkpt>
      <trkpt lat="45.6285" lon="5.70971">
        <ele>908.69995117188</ele>
        <time>2012-05-02T13:14:01Z</time>
      </trkpt>
      <trkpt lat="45.62843" lon="5.70947">
        <ele>906</ele>
        <time>2012-05-02T13:14:17Z</time>
      </trkpt>
      <trkpt lat="45.62842" lon="5.70934">
        <ele>905.80004882812</ele>
        <time>2012-05-02T13:14:23Z</time>
      </trkpt>
      <trkpt lat="45.62829" lon="5.70913">
        <ele>900.19995117188</ele>
        <time>2012-05-02T13:14:43Z</time>
      </trkpt>
      <trkpt lat="45.6282" lon="5.70886">
        <ele>900.5</ele>
        <time>2012-05-02T13:14:49Z</time>
      </trkpt>
      <trkpt lat="45.628" lon="5.70851">
        <ele>899.09997558594</ele>
        <time>2012-05-02T13:14:59Z</time>
      </trkpt>
      <trkpt lat="45.62785" lon="5.70833">
        <ele>898.80004882812</ele>
        <time>2012-05-02T13:15:13Z</time>
      </trkpt>
      <trkpt lat="45.62765" lon="5.70839">
        <ele>895.80004882812</ele>
        <time>2012-05-02T13:15:33Z</time>
      </trkpt>
      <trkpt lat="45.62747" lon="5.7085">
        <ele>895.09997558594</ele>
        <time>2012-05-02T13:15:52Z</time>
      </trkpt>
      <trkpt lat="45.62727" lon="5.70856">
        <ele>892.90002441406</ele>
        <time>2012-05-02T13:16:07Z</time>
      </trkpt>
      <trkpt lat="45.62707" lon="5.7086">
        <ele>892.30004882812</ele>
        <time>2012-05-02T13:16:24Z</time>
      </trkpt>
      <trkpt lat="45.62686" lon="5.7086">
        <ele>892.30004882812</ele>
        <time>2012-05-02T13:16:40Z</time>
      </trkpt>
      <trkpt lat="45.62667" lon="5.7086">
        <ele>892.30004882812</ele>
        <time>2012-05-02T13:16:51Z</time>
      </trkpt>
      <trkpt lat="45.62649" lon="5.7085">
        <ele>891.30004882812</ele>
        <time>2012-05-02T13:17:06Z</time>
      </trkpt>
      <trkpt lat="45.62634" lon="5.70831">
        <ele>890.30004882812</ele>
        <time>2012-05-02T13:17:22Z</time>
      </trkpt>
      <trkpt lat="45.62624" lon="5.7081">
        <ele>890.09997558594</ele>
        <time>2012-05-02T13:17:39Z</time>
      </trkpt>
      <trkpt lat="45.62614" lon="5.70786">
        <ele>888.09997558594</ele>
        <time>2012-05-02T13:17:56Z</time>
      </trkpt>
      <trkpt lat="45.62606" lon="5.70759">
        <ele>885.90002441406</ele>
        <time>2012-05-02T13:18:10Z</time>
      </trkpt>
      <trkpt lat="45.62599" lon="5.70735">
        <ele>882.19995117188</ele>
        <time>2012-05-02T13:18:26Z</time>
      </trkpt>
      <trkpt lat="45.62581" lon="5.70726">
        <ele>879.90002441406</ele>
        <time>2012-05-02T13:18:44Z</time>
      </trkpt>
      <trkpt lat="45.62567" lon="5.70709">
        <ele>879.90002441406</ele>
        <time>2012-05-02T13:19:04Z</time>
      </trkpt>
      <trkpt lat="45.6255" lon="5.70696">
        <ele>879.90002441406</ele>
        <time>2012-05-02T13:19:20Z</time>
      </trkpt>
      <trkpt lat="45.62531" lon="5.70662">
        <ele>877.59997558594</ele>
        <time>2012-05-02T13:19:40Z</time>
      </trkpt>
      <trkpt lat="45.6252" lon="5.70639">
        <ele>873.5</ele>
        <time>2012-05-02T13:20:01Z</time>
      </trkpt>
      <trkpt lat="45.62504" lon="5.70624">
        <ele>869.69995117188</ele>
        <time>2012-05-02T13:20:22Z</time>
      </trkpt>
      <trkpt lat="45.62487" lon="5.70614">
        <ele>868</ele>
        <time>2012-05-02T13:20:38Z</time>
      </trkpt>
      <trkpt lat="45.62459" lon="5.70601">
        <ele>864.69995117188</ele>
        <time>2012-05-02T13:21:56Z</time>
      </trkpt>
      <trkpt lat="45.62441" lon="5.70591">
        <ele>863.80004882812</ele>
        <time>2012-05-02T13:22:19Z</time>
      </trkpt>
      <trkpt lat="45.62413" lon="5.7058">
        <ele>860.30004882812</ele>
        <time>2012-05-02T13:22:39Z</time>
      </trkpt>
      <trkpt lat="45.62388" lon="5.70567">
        <ele>856.80004882812</ele>
        <time>2012-05-02T13:23:03Z</time>
      </trkpt>
      <trkpt lat="45.62369" lon="5.70558">
        <ele>856.80004882812</ele>
        <time>2012-05-02T13:23:17Z</time>
      </trkpt>
      <trkpt lat="45.62344" lon="5.70554">
        <ele>851.59997558594</ele>
        <time>2012-05-02T13:23:50Z</time>
      </trkpt>
      <trkpt lat="45.62339" lon="5.70581">
        <ele>841.90002441406</ele>
        <time>2012-05-02T13:24:16Z</time>
      </trkpt>
      <trkpt lat="45.62343" lon="5.70608">
        <ele>841.5</ele>
        <time>2012-05-02T13:24:35Z</time>
      </trkpt>
      <trkpt lat="45.62343" lon="5.7065">
        <ele>841.80004882812</ele>
        <time>2012-05-02T13:25:02Z</time>
      </trkpt>
      <trkpt lat="45.6234" lon="5.70691">
        <ele>841.30004882812</ele>
        <time>2012-05-02T13:25:26Z</time>
      </trkpt>
      <trkpt lat="45.62324" lon="5.707">
        <ele>840.09997558594</ele>
        <time>2012-05-02T13:25:56Z</time>
      </trkpt>
      <trkpt lat="45.62306" lon="5.70664">
        <ele>834</ele>
        <time>2012-05-02T13:26:37Z</time>
      </trkpt>
      <trkpt lat="45.62291" lon="5.70649">
        <ele>832.19995117188</ele>
        <time>2012-05-02T13:27:04Z</time>
      </trkpt>
      <trkpt lat="45.62289" lon="5.70623">
        <ele>828.59997558594</ele>
        <time>2012-05-02T13:27:25Z</time>
      </trkpt>
      <trkpt lat="45.62271" lon="5.70592">
        <ele>824.59997558594</ele>
        <time>2012-05-02T13:27:54Z</time>
      </trkpt>
      <trkpt lat="45.62257" lon="5.70557">
        <ele>821.69995117188</ele>
        <time>2012-05-02T13:28:17Z</time>
      </trkpt>
      <trkpt lat="45.62247" lon="5.70533">
        <ele>818.5</ele>
        <time>2012-05-02T13:28:35Z</time>
      </trkpt>
      <trkpt lat="45.62223" lon="5.70511">
        <ele>815.09997558594</ele>
        <time>2012-05-02T13:29:00Z</time>
      </trkpt>
      <trkpt lat="45.62206" lon="5.70497">
        <ele>811.19995117188</ele>
        <time>2012-05-02T13:29:11Z</time>
      </trkpt>
      <trkpt lat="45.62191" lon="5.70479">
        <ele>804.80004882812</ele>
        <time>2012-05-02T13:29:28Z</time>
      </trkpt>
      <trkpt lat="45.62182" lon="5.70472">
        <ele>803.59997558594</ele>
        <time>2012-05-02T13:29:36Z</time>
      </trkpt>
      <trkpt lat="45.62174" lon="5.70466">
        <ele>802.19995117188</ele>
        <time>2012-05-02T13:29:43Z</time>
      </trkpt>
      <trkpt lat="45.62158" lon="5.70453">
        <ele>801.69995117188</ele>
        <time>2012-05-02T13:29:58Z</time>
      </trkpt>
      <trkpt lat="45.62134" lon="5.70431">
        <ele>802.40002441406</ele>
        <time>2012-05-02T13:30:23Z</time>
      </trkpt>
      <trkpt lat="45.62118" lon="5.70412">
        <ele>801.59997558594</ele>
        <time>2012-05-02T13:30:37Z</time>
      </trkpt>
      <trkpt lat="45.62103" lon="5.70396">
        <ele>800.30004882812</ele>
        <time>2012-05-02T13:30:48Z</time>
      </trkpt>
      <trkpt lat="45.62085" lon="5.70386">
        <ele>799.30004882812</ele>
        <time>2012-05-02T13:31:02Z</time>
      </trkpt>
      <trkpt lat="45.62067" lon="5.70379">
        <ele>794.09997558594</ele>
        <time>2012-05-02T13:31:18Z</time>
      </trkpt>
      <trkpt lat="45.6205" lon="5.70367">
        <ele>791.30004882812</ele>
        <time>2012-05-02T13:31:35Z</time>
      </trkpt>
      <trkpt lat="45.6204" lon="5.70334">
        <ele>787</ele>
        <time>2012-05-02T13:31:51Z</time>
      </trkpt>
      <trkpt lat="45.62046" lon="5.70308">
        <ele>782.90002441406</ele>
        <time>2012-05-02T13:32:03Z</time>
      </trkpt>
      <trkpt lat="45.62053" lon="5.70283">
        <ele>780.90002441406</ele>
        <time>2012-05-02T13:32:18Z</time>
      </trkpt>
      <trkpt lat="45.62059" lon="5.70257">
        <ele>779.19995117188</ele>
        <time>2012-05-02T13:32:33Z</time>
      </trkpt>
      <trkpt lat="45.62067" lon="5.70232">
        <ele>777.80004882812</ele>
        <time>2012-05-02T13:32:50Z</time>
      </trkpt>
      <trkpt lat="45.62079" lon="5.70209">
        <ele>776.69995117188</ele>
        <time>2012-05-02T13:33:05Z</time>
      </trkpt>
      <trkpt lat="45.62095" lon="5.70192">
        <ele>770.90002441406</ele>
        <time>2012-05-02T13:33:18Z</time>
      </trkpt>
      <trkpt lat="45.6211" lon="5.70175">
        <ele>769.09997558594</ele>
        <time>2012-05-02T13:33:29Z</time>
      </trkpt>
      <trkpt lat="45.62131" lon="5.70164">
        <ele>768.80004882812</ele>
        <time>2012-05-02T13:33:35Z</time>
      </trkpt>
      <trkpt lat="45.62154" lon="5.70162">
        <ele>769.5</ele>
        <time>2012-05-02T13:33:41Z</time>
      </trkpt>
      <trkpt lat="45.62173" lon="5.70159">
        <ele>769.09997558594</ele>
        <time>2012-05-02T13:33:54Z</time>
      </trkpt>
      <trkpt lat="45.62191" lon="5.70158">
        <ele>770.40002441406</ele>
        <time>2012-05-02T13:34:16Z</time>
      </trkpt>
      <trkpt lat="45.62232" lon="5.70157">
        <ele>771.19995117188</ele>
        <time>2012-05-02T13:35:25Z</time>
      </trkpt>
      <trkpt lat="45.62239" lon="5.70149">
        <ele>772.09997558594</ele>
        <time>2012-05-02T13:35:56Z</time>
      </trkpt>
      <trkpt lat="45.62247" lon="5.7008">
        <ele>769.09997558594</ele>
        <time>2012-05-02T13:36:17Z</time>
      </trkpt>
      <trkpt lat="45.6226" lon="5.70036">
        <ele>766.69995117188</ele>
        <time>2012-05-02T13:36:27Z</time>
      </trkpt>
      <trkpt lat="45.62271" lon="5.6999">
        <ele>764.40002441406</ele>
        <time>2012-05-02T13:36:33Z</time>
      </trkpt>
      <trkpt lat="45.62284" lon="5.6995">
        <ele>762.59997558594</ele>
        <time>2012-05-02T13:36:41Z</time>
      </trkpt>
      <trkpt lat="45.62287" lon="5.69922">
        <ele>761.19995117188</ele>
        <time>2012-05-02T13:36:52Z</time>
      </trkpt>
      <trkpt lat="45.62289" lon="5.69894">
        <ele>757</ele>
        <time>2012-05-02T13:37:06Z</time>
      </trkpt>
      <trkpt lat="45.62288" lon="5.69866">
        <ele>756.30004882812</ele>
        <time>2012-05-02T13:37:18Z</time>
      </trkpt>
      <trkpt lat="45.62306" lon="5.69864">
        <ele>751.59997558594</ele>
        <time>2012-05-02T13:37:36Z</time>
      </trkpt>
      <trkpt lat="45.62324" lon="5.69872">
        <ele>749.69995117188</ele>
        <time>2012-05-02T13:37:47Z</time>
      </trkpt>
      <trkpt lat="45.62348" lon="5.6988">
        <ele>749.80004882812</ele>
        <time>2012-05-02T13:37:53Z</time>
      </trkpt>
      <trkpt lat="45.62377" lon="5.69891">
        <ele>749.59997558594</ele>
        <time>2012-05-02T13:37:57Z</time>
      </trkpt>
      <trkpt lat="45.62403" lon="5.69899">
        <ele>750.09997558594</ele>
        <time>2012-05-02T13:38:01Z</time>
      </trkpt>
      <trkpt lat="45.62429" lon="5.69908">
        <ele>751.5</ele>
        <time>2012-05-02T13:38:05Z</time>
      </trkpt>
      <trkpt lat="45.62452" lon="5.69914">
        <ele>753.30004882812</ele>
        <time>2012-05-02T13:38:09Z</time>
      </trkpt>
      <trkpt lat="45.62474" lon="5.69916">
        <ele>755.19995117188</ele>
        <time>2012-05-02T13:38:14Z</time>
      </trkpt>
      <trkpt lat="45.62493" lon="5.69915">
        <ele>759.59997558594</ele>
        <time>2012-05-02T13:38:32Z</time>
      </trkpt>
      <trkpt lat="45.625" lon="5.69889">
        <ele>759.59997558594</ele>
        <time>2012-05-02T13:38:49Z</time>
      </trkpt>
      <trkpt lat="45.62508" lon="5.69881">
        <ele>759.19995117188</ele>
        <time>2012-05-02T13:38:55Z</time>
      </trkpt>
      <trkpt lat="45.62516" lon="5.69874">
        <ele>759.40002441406</ele>
        <time>2012-05-02T13:39:01Z</time>
      </trkpt>
      <trkpt lat="45.62531" lon="5.69856">
        <ele>757.90002441406</ele>
        <time>2012-05-02T13:39:15Z</time>
      </trkpt>
      <trkpt lat="45.62545" lon="5.69836">
        <ele>757.80004882812</ele>
        <time>2012-05-02T13:39:31Z</time>
      </trkpt>
      <trkpt lat="45.62563" lon="5.69822">
        <ele>757.90002441406</ele>
        <time>2012-05-02T13:39:44Z</time>
      </trkpt>
      <trkpt lat="45.62581" lon="5.6981">
        <ele>755.19995117188</ele>
        <time>2012-05-02T13:39:57Z</time>
      </trkpt>
      <trkpt lat="45.62589" lon="5.69805">
        <ele>754.5</ele>
        <time>2012-05-02T13:40:03Z</time>
      </trkpt>
      <trkpt lat="45.62598" lon="5.69801">
        <ele>754.59997558594</ele>
        <time>2012-05-02T13:40:10Z</time>
      </trkpt>
      <trkpt lat="45.62608" lon="5.69793">
        <ele>754.19995117188</ele>
        <time>2012-05-02T13:40:17Z</time>
      </trkpt>
      <trkpt lat="45.62625" lon="5.69791">
        <ele>754.09997558594</ele>
        <time>2012-05-02T13:40:30Z</time>
      </trkpt>
      <trkpt lat="45.62645" lon="5.69792">
        <ele>755</ele>
        <time>2012-05-02T13:40:43Z</time>
      </trkpt>
      <trkpt lat="45.62664" lon="5.69796">
        <ele>757.59997558594</ele>
        <time>2012-05-02T13:40:58Z</time>
      </trkpt>
      <trkpt lat="45.62683" lon="5.69802">
        <ele>761.19995117188</ele>
        <time>2012-05-02T13:41:12Z</time>
      </trkpt>
      <trkpt lat="45.6271" lon="5.69809">
        <ele>764</ele>
        <time>2012-05-02T13:41:33Z</time>
      </trkpt>
      <trkpt lat="45.62727" lon="5.69799">
        <ele>766.30004882812</ele>
        <time>2012-05-02T13:41:49Z</time>
      </trkpt>
      <trkpt lat="45.6273" lon="5.6977">
        <ele>766.09997558594</ele>
        <time>2012-05-02T13:42:05Z</time>
      </trkpt>
      <trkpt lat="45.62738" lon="5.69764">
        <ele>766.90002441406</ele>
        <time>2012-05-02T13:42:11Z</time>
      </trkpt>
      <trkpt lat="45.62757" lon="5.69758">
        <ele>767.40002441406</ele>
        <time>2012-05-02T13:42:24Z</time>
      </trkpt>
      <trkpt lat="45.62776" lon="5.69753">
        <ele>767.30004882812</ele>
        <time>2012-05-02T13:42:37Z</time>
      </trkpt>
      <trkpt lat="45.62786" lon="5.6975">
        <ele>767.30004882812</ele>
        <time>2012-05-02T13:42:44Z</time>
      </trkpt>
      <trkpt lat="45.62795" lon="5.69748">
        <ele>767.5</ele>
        <time>2012-05-02T13:42:50Z</time>
      </trkpt>
      <trkpt lat="45.62814" lon="5.69743">
        <ele>767.80004882812</ele>
        <time>2012-05-02T13:43:00Z</time>
      </trkpt>
      <trkpt lat="45.62832" lon="5.6974">
        <ele>768.69995117188</ele>
        <time>2012-05-02T13:43:12Z</time>
      </trkpt>
      <trkpt lat="45.62852" lon="5.69738">
        <ele>769.09997558594</ele>
        <time>2012-05-02T13:43:28Z</time>
      </trkpt>
      <trkpt lat="45.62871" lon="5.69745">
        <ele>770</ele>
        <time>2012-05-02T13:43:42Z</time>
      </trkpt>
      <trkpt lat="45.62888" lon="5.69736">
        <ele>773.30004882812</ele>
        <time>2012-05-02T13:43:56Z</time>
      </trkpt>
      <trkpt lat="45.62897" lon="5.69733">
        <ele>774.40002441406</ele>
        <time>2012-05-02T13:44:02Z</time>
      </trkpt>
      <trkpt lat="45.62907" lon="5.69737">
        <ele>774.80004882812</ele>
        <time>2012-05-02T13:44:08Z</time>
      </trkpt>
      <trkpt lat="45.62925" lon="5.69746">
        <ele>776.5</ele>
        <time>2012-05-02T13:44:23Z</time>
      </trkpt>
      <trkpt lat="45.62936" lon="5.69751">
        <ele>777.30004882812</ele>
        <time>2012-05-02T13:44:30Z</time>
      </trkpt>
      <trkpt lat="45.62945" lon="5.69755">
        <ele>777.80004882812</ele>
        <time>2012-05-02T13:44:37Z</time>
      </trkpt>
      <trkpt lat="45.62955" lon="5.6976">
        <ele>778.40002441406</ele>
        <time>2012-05-02T13:44:44Z</time>
      </trkpt>
      <trkpt lat="45.62971" lon="5.69775">
        <ele>779.90002441406</ele>
        <time>2012-05-02T13:44:57Z</time>
      </trkpt>
      <trkpt lat="45.62982" lon="5.698">
        <ele>782.59997558594</ele>
        <time>2012-05-02T13:45:12Z</time>
      </trkpt>
      <trkpt lat="45.62998" lon="5.69818">
        <ele>783.69995117188</ele>
        <time>2012-05-02T13:45:25Z</time>
      </trkpt>
      <trkpt lat="45.63014" lon="5.69852">
        <ele>785.5</ele>
        <time>2012-05-02T13:45:45Z</time>
      </trkpt>
      <trkpt lat="45.63023" lon="5.69876">
        <ele>787.69995117188</ele>
        <time>2012-05-02T13:46:00Z</time>
      </trkpt>
      <trkpt lat="45.63037" lon="5.69914">
        <ele>789.5</ele>
        <time>2012-05-02T13:46:21Z</time>
      </trkpt>
      <trkpt lat="45.63059" lon="5.69938">
        <ele>790.90002441406</ele>
        <time>2012-05-02T13:46:40Z</time>
      </trkpt>
      <trkpt lat="45.63092" lon="5.69956">
        <ele>792.90002441406</ele>
        <time>2012-05-02T13:46:53Z</time>
      </trkpt>
      <trkpt lat="45.63116" lon="5.69967">
        <ele>794.09997558594</ele>
        <time>2012-05-02T13:46:57Z</time>
      </trkpt>
      <trkpt lat="45.63139" lon="5.69981">
        <ele>794.80004882812</ele>
        <time>2012-05-02T13:47:01Z</time>
      </trkpt>
      <trkpt lat="45.63159" lon="5.70004">
        <ele>793</ele>
        <time>2012-05-02T13:47:05Z</time>
      </trkpt>
      <trkpt lat="45.63168" lon="5.70017">
        <ele>793.09997558594</ele>
        <time>2012-05-02T13:47:08Z</time>
      </trkpt>
      <trkpt lat="45.63176" lon="5.70028">
        <ele>793.09997558594</ele>
        <time>2012-05-02T13:47:10Z</time>
      </trkpt>
      <trkpt lat="45.63196" lon="5.7005">
        <ele>792.59997558594</ele>
        <time>2012-05-02T13:47:14Z</time>
      </trkpt>
      <trkpt lat="45.63223" lon="5.70073">
        <ele>792.19995117188</ele>
        <time>2012-05-02T13:47:20Z</time>
      </trkpt>
      <trkpt lat="45.63245" lon="5.70077">
        <ele>792.5</ele>
        <time>2012-05-02T13:47:24Z</time>
      </trkpt>
      <trkpt lat="45.63271" lon="5.70073">
        <ele>794.19995117188</ele>
        <time>2012-05-02T13:47:28Z</time>
      </trkpt>
      <trkpt lat="45.63284" lon="5.70073">
        <ele>794.90002441406</ele>
        <time>2012-05-02T13:47:30Z</time>
      </trkpt>
      <trkpt lat="45.63311" lon="5.70072">
        <ele>796.09997558594</ele>
        <time>2012-05-02T13:47:33Z</time>
      </trkpt>
      <trkpt lat="45.63338" lon="5.70076">
        <ele>797.09997558594</ele>
        <time>2012-05-02T13:47:37Z</time>
      </trkpt>
      <trkpt lat="45.63367" lon="5.70081">
        <ele>801.59997558594</ele>
        <time>2012-05-02T13:47:55Z</time>
      </trkpt>
      <trkpt lat="45.63381" lon="5.70101">
        <ele>805.30004882812</ele>
        <time>2012-05-02T13:48:11Z</time>
      </trkpt>
      <trkpt lat="45.63391" lon="5.70126">
        <ele>809.09997558594</ele>
        <time>2012-05-02T13:48:27Z</time>
      </trkpt>
      <trkpt lat="45.63404" lon="5.70146">
        <ele>812.59997558594</ele>
        <time>2012-05-02T13:48:44Z</time>
      </trkpt>
      <trkpt lat="45.63421" lon="5.70161">
        <ele>816.09997558594</ele>
        <time>2012-05-02T13:48:56Z</time>
      </trkpt>
      <trkpt lat="45.63439" lon="5.70176">
        <ele>819.80004882812</ele>
        <time>2012-05-02T13:49:12Z</time>
      </trkpt>
      <trkpt lat="45.63454" lon="5.70192">
        <ele>822.09997558594</ele>
        <time>2012-05-02T13:49:29Z</time>
      </trkpt>
      <trkpt lat="45.6347" lon="5.70208">
        <ele>825.40002441406</ele>
        <time>2012-05-02T13:49:44Z</time>
      </trkpt>
      <trkpt lat="45.63487" lon="5.70217">
        <ele>829.90002441406</ele>
        <time>2012-05-02T13:50:02Z</time>
      </trkpt>
      <trkpt lat="45.63506" lon="5.70214">
        <ele>834.40002441406</ele>
        <time>2012-05-02T13:50:26Z</time>
      </trkpt>
      <trkpt lat="45.63512" lon="5.70189">
        <ele>828.90002441406</ele>
        <time>2012-05-02T13:50:54Z</time>
      </trkpt>
      <trkpt lat="45.63511" lon="5.7016">
        <ele>827.30004882812</ele>
        <time>2012-05-02T13:51:09Z</time>
      </trkpt>
      <trkpt lat="45.63508" lon="5.70119">
        <ele>825.69995117188</ele>
        <time>2012-05-02T13:51:31Z</time>
      </trkpt>
      <trkpt lat="45.63519" lon="5.70093">
        <ele>817.80004882812</ele>
        <time>2012-05-02T13:52:10Z</time>
      </trkpt>
      <trkpt lat="45.63509" lon="5.7007">
        <ele>815.69995117188</ele>
        <time>2012-05-02T13:52:33Z</time>
      </trkpt>
      <trkpt lat="45.63495" lon="5.70053">
        <ele>812.19995117188</ele>
        <time>2012-05-02T13:52:51Z</time>
      </trkpt>
      <trkpt lat="45.63471" lon="5.70033">
        <ele>805.40002441406</ele>
        <time>2012-05-02T13:53:50Z</time>
      </trkpt>
      <trkpt lat="45.6347" lon="5.70005">
        <ele>802.5</ele>
        <time>2012-05-02T13:54:02Z</time>
      </trkpt>
      <trkpt lat="45.63477" lon="5.69978">
        <ele>802.19995117188</ele>
        <time>2012-05-02T13:54:07Z</time>
      </trkpt>
      <trkpt lat="45.63488" lon="5.69951">
        <ele>801.80004882812</ele>
        <time>2012-05-02T13:54:12Z</time>
      </trkpt>
      <trkpt lat="45.635" lon="5.69924">
        <ele>801.69995117188</ele>
        <time>2012-05-02T13:54:17Z</time>
      </trkpt>
      <trkpt lat="45.6351" lon="5.69895">
        <ele>801.09997558594</ele>
        <time>2012-05-02T13:54:21Z</time>
      </trkpt>
      <trkpt lat="45.63522" lon="5.69869">
        <ele>801</ele>
        <time>2012-05-02T13:54:25Z</time>
      </trkpt>
      <trkpt lat="45.63528" lon="5.69841">
        <ele>801.69995117188</ele>
        <time>2012-05-02T13:54:34Z</time>
      </trkpt>
      <trkpt lat="45.63514" lon="5.69825">
        <ele>801</ele>
        <time>2012-05-02T13:54:46Z</time>
      </trkpt>
      <trkpt lat="45.635" lon="5.69805">
        <ele>799.90002441406</ele>
        <time>2012-05-02T13:54:58Z</time>
      </trkpt>
      <trkpt lat="45.63495" lon="5.69778">
        <ele>799.09997558594</ele>
        <time>2012-05-02T13:55:10Z</time>
      </trkpt>
      <trkpt lat="45.63497" lon="5.69764">
        <ele>799.19995117188</ele>
        <time>2012-05-02T13:55:16Z</time>
      </trkpt>
      <trkpt lat="45.635" lon="5.69751">
        <ele>799.19995117188</ele>
        <time>2012-05-02T13:55:22Z</time>
      </trkpt>
      <trkpt lat="45.63509" lon="5.69749">
        <ele>799.40002441406</ele>
        <time>2012-05-02T13:55:28Z</time>
      </trkpt>
      <trkpt lat="45.6352" lon="5.6975">
        <ele>800.30004882812</ele>
        <time>2012-05-02T13:55:35Z</time>
      </trkpt>
      <trkpt lat="45.6353" lon="5.69752">
        <ele>801.80004882812</ele>
        <time>2012-05-02T13:55:40Z</time>
      </trkpt>
      <trkpt lat="45.6354" lon="5.69753">
        <ele>803.09997558594</ele>
        <time>2012-05-02T13:55:46Z</time>
      </trkpt>
      <trkpt lat="45.6355" lon="5.69755">
        <ele>803.69995117188</ele>
        <time>2012-05-02T13:55:54Z</time>
      </trkpt>
      <trkpt lat="45.6356" lon="5.69755">
        <ele>803.5</ele>
        <time>2012-05-02T13:56:01Z</time>
      </trkpt>
      <trkpt lat="45.63569" lon="5.69757">
        <ele>801.90002441406</ele>
        <time>2012-05-02T13:56:07Z</time>
      </trkpt>
      <trkpt lat="45.63579" lon="5.6976">
        <ele>800.69995117188</ele>
        <time>2012-05-02T13:56:14Z</time>
      </trkpt>
      <trkpt lat="45.63589" lon="5.69761">
        <ele>800.40002441406</ele>
        <time>2012-05-02T13:56:21Z</time>
      </trkpt>
      <trkpt lat="45.63598" lon="5.69765">
        <ele>799.69995117188</ele>
        <time>2012-05-02T13:56:29Z</time>
      </trkpt>
      <trkpt lat="45.63608" lon="5.69766">
        <ele>799.19995117188</ele>
        <time>2012-05-02T13:56:37Z</time>
      </trkpt>
      <trkpt lat="45.63619" lon="5.69767">
        <ele>798.30004882812</ele>
        <time>2012-05-02T13:56:43Z</time>
      </trkpt>
      <trkpt lat="45.63629" lon="5.69766">
        <ele>798</ele>
        <time>2012-05-02T13:56:49Z</time>
      </trkpt>
      <trkpt lat="45.63649" lon="5.69762">
        <ele>796.90002441406</ele>
        <time>2012-05-02T13:57:02Z</time>
      </trkpt>
      <trkpt lat="45.63668" lon="5.69755">
        <ele>795.40002441406</ele>
        <time>2012-05-02T13:57:13Z</time>
      </trkpt>
      <trkpt lat="45.63677" lon="5.69754">
        <ele>795.5</ele>
        <time>2012-05-02T13:57:19Z</time>
      </trkpt>
      <trkpt lat="45.63687" lon="5.69751">
        <ele>795.5</ele>
        <time>2012-05-02T13:57:26Z</time>
      </trkpt>
      <trkpt lat="45.63697" lon="5.6975">
        <ele>796.30004882812</ele>
        <time>2012-05-02T13:57:32Z</time>
      </trkpt>
      <trkpt lat="45.63706" lon="5.69749">
        <ele>796.09997558594</ele>
        <time>2012-05-02T13:57:38Z</time>
      </trkpt>
      <trkpt lat="45.63717" lon="5.69748">
        <ele>796</ele>
        <time>2012-05-02T13:57:46Z</time>
      </trkpt>
      <trkpt lat="45.63726" lon="5.69745">
        <ele>798.19995117188</ele>
        <time>2012-05-02T13:57:54Z</time>
      </trkpt>
      <trkpt lat="45.63735" lon="5.69742">
        <ele>798.90002441406</ele>
        <time>2012-05-02T13:58:00Z</time>
      </trkpt>
      <trkpt lat="45.63745" lon="5.69738">
        <ele>800.19995117188</ele>
        <time>2012-05-02T13:58:07Z</time>
      </trkpt>
      <trkpt lat="45.63753" lon="5.69731">
        <ele>802.59997558594</ele>
        <time>2012-05-02T13:59:52Z</time>
      </trkpt>
      <trkpt lat="45.63763" lon="5.69729">
        <ele>802.90002441406</ele>
        <time>2012-05-02T13:59:59Z</time>
      </trkpt>
      <trkpt lat="45.63783" lon="5.69729">
        <ele>803.59997558594</ele>
        <time>2012-05-02T14:00:13Z</time>
      </trkpt>
      <trkpt lat="45.63792" lon="5.69735">
        <ele>804.59997558594</ele>
        <time>2012-05-02T14:00:20Z</time>
      </trkpt>
      <trkpt lat="45.63799" lon="5.69745">
        <ele>804.5</ele>
        <time>2012-05-02T14:00:26Z</time>
      </trkpt>
      <trkpt lat="45.63812" lon="5.69766">
        <ele>806.19995117188</ele>
        <time>2012-05-02T14:00:41Z</time>
      </trkpt>
      <trkpt lat="45.63812" lon="5.69793">
        <ele>808.09997558594</ele>
        <time>2012-05-02T14:00:56Z</time>
      </trkpt>
      <trkpt lat="45.63811" lon="5.69807">
        <ele>808.69995117188</ele>
        <time>2012-05-02T14:01:04Z</time>
      </trkpt>
      <trkpt lat="45.63812" lon="5.69848">
        <ele>811.30004882812</ele>
        <time>2012-05-02T14:01:31Z</time>
      </trkpt>
      <trkpt lat="45.63822" lon="5.69872">
        <ele>812.09997558594</ele>
        <time>2012-05-02T14:01:46Z</time>
      </trkpt>
      <trkpt lat="45.63838" lon="5.69905">
        <ele>816.59997558594</ele>
        <time>2012-05-02T14:02:08Z</time>
      </trkpt>
      <trkpt lat="45.63848" lon="5.69927">
        <ele>823.59997558594</ele>
        <time>2012-05-02T14:02:34Z</time>
      </trkpt>
      <trkpt lat="45.63863" lon="5.69942">
        <ele>826.30004882812</ele>
        <time>2012-05-02T14:02:49Z</time>
      </trkpt>
      <trkpt lat="45.63879" lon="5.69955">
        <ele>829.09997558594</ele>
        <time>2012-05-02T14:03:07Z</time>
      </trkpt>
      <trkpt lat="45.63894" lon="5.69972">
        <ele>833.09997558594</ele>
        <time>2012-05-02T14:03:26Z</time>
      </trkpt>
      <trkpt lat="45.63911" lon="5.69984">
        <ele>835.09997558594</ele>
        <time>2012-05-02T14:03:43Z</time>
      </trkpt>
      <trkpt lat="45.6393" lon="5.69994">
        <ele>835.19995117188</ele>
        <time>2012-05-02T14:03:56Z</time>
      </trkpt>
      <trkpt lat="45.63948" lon="5.70005">
        <ele>837.40002441406</ele>
        <time>2012-05-02T14:04:16Z</time>
      </trkpt>
      <trkpt lat="45.63965" lon="5.70018">
        <ele>839</ele>
        <time>2012-05-02T14:04:32Z</time>
      </trkpt>
      <trkpt lat="45.63983" lon="5.70028">
        <ele>839.40002441406</ele>
        <time>2012-05-02T14:04:45Z</time>
      </trkpt>
      <trkpt lat="45.64001" lon="5.70041">
        <ele>839.80004882812</ele>
        <time>2012-05-02T14:04:58Z</time>
      </trkpt>
      <trkpt lat="45.64021" lon="5.70055">
        <ele>842.40002441406</ele>
        <time>2012-05-02T14:05:10Z</time>
      </trkpt>
      <trkpt lat="45.64039" lon="5.70069">
        <ele>844.90002441406</ele>
        <time>2012-05-02T14:05:23Z</time>
      </trkpt>
      <trkpt lat="45.64063" lon="5.70094">
        <ele>847.80004882812</ele>
        <time>2012-05-02T14:05:45Z</time>
      </trkpt>
      <trkpt lat="45.64077" lon="5.70114">
        <ele>849.09997558594</ele>
        <time>2012-05-02T14:05:58Z</time>
      </trkpt>
      <trkpt lat="45.64092" lon="5.70132">
        <ele>851.40002441406</ele>
        <time>2012-05-02T14:06:12Z</time>
      </trkpt>
      <trkpt lat="45.64082" lon="5.70157">
        <ele>852.30004882812</ele>
        <time>2012-05-02T14:06:26Z</time>
      </trkpt>
      <trkpt lat="45.64072" lon="5.70181">
        <ele>856.19995117188</ele>
        <time>2012-05-02T14:06:41Z</time>
      </trkpt>
      <trkpt lat="45.64063" lon="5.70204">
        <ele>861.30004882812</ele>
        <time>2012-05-02T14:06:58Z</time>
      </trkpt>
      <trkpt lat="45.64055" lon="5.70228">
        <ele>862.59997558594</ele>
        <time>2012-05-02T14:07:14Z</time>
      </trkpt>
      <trkpt lat="45.6405" lon="5.70254">
        <ele>864.59997558594</ele>
        <time>2012-05-02T14:07:36Z</time>
      </trkpt>
      <trkpt lat="45.64043" lon="5.70279">
        <ele>866.80004882812</ele>
        <time>2012-05-02T14:07:52Z</time>
      </trkpt>
      <trkpt lat="45.64027" lon="5.70292">
        <ele>871.19995117188</ele>
        <time>2012-05-02T14:08:26Z</time>
      </trkpt>
      <trkpt lat="45.6401" lon="5.70279">
        <ele>872.90002441406</ele>
        <time>2012-05-02T14:08:47Z</time>
      </trkpt>
      <trkpt lat="45.6399" lon="5.70287">
        <ele>876.69995117188</ele>
        <time>2012-05-02T14:09:00Z</time>
      </trkpt>
      <trkpt lat="45.63982" lon="5.70295">
        <ele>877.5</ele>
        <time>2012-05-02T14:09:09Z</time>
      </trkpt>
      <trkpt lat="45.63966" lon="5.70303">
        <ele>881.30004882812</ele>
        <time>2012-05-02T14:09:26Z</time>
      </trkpt>
      <trkpt lat="45.63951" lon="5.70312">
        <ele>883.59997558594</ele>
        <time>2012-05-02T14:09:46Z</time>
      </trkpt>
      <trkpt lat="45.63937" lon="5.70332">
        <ele>883.40002441406</ele>
        <time>2012-05-02T14:10:06Z</time>
      </trkpt>
      <trkpt lat="45.63938" lon="5.70346">
        <ele>883</ele>
        <time>2012-05-02T14:10:13Z</time>
      </trkpt>
      <trkpt lat="45.63922" lon="5.70363">
        <ele>884</ele>
        <time>2012-05-02T14:10:26Z</time>
      </trkpt>
      <trkpt lat="45.63904" lon="5.70387">
        <ele>884.09997558594</ele>
        <time>2012-05-02T14:10:30Z</time>
      </trkpt>
      <trkpt lat="45.63894" lon="5.70408">
        <ele>884.09997558594</ele>
        <time>2012-05-02T14:10:42Z</time>
      </trkpt>
      <trkpt lat="45.63884" lon="5.70432">
        <ele>884.5</ele>
        <time>2012-05-02T14:10:56Z</time>
      </trkpt>
      <trkpt lat="45.63881" lon="5.70459">
        <ele>885.09997558594</ele>
        <time>2012-05-02T14:11:11Z</time>
      </trkpt>
      <trkpt lat="45.63876" lon="5.70486">
        <ele>887.40002441406</ele>
        <time>2012-05-02T14:11:28Z</time>
      </trkpt>
      <trkpt lat="45.63873" lon="5.70512">
        <ele>890</ele>
        <time>2012-05-02T14:11:50Z</time>
      </trkpt>
      <trkpt lat="45.63875" lon="5.70538">
        <ele>892.30004882812</ele>
        <time>2012-05-02T14:12:05Z</time>
      </trkpt>
      <trkpt lat="45.6388" lon="5.70564">
        <ele>893.30004882812</ele>
        <time>2012-05-02T14:12:21Z</time>
      </trkpt>
      <trkpt lat="45.63889" lon="5.70589">
        <ele>893.90002441406</ele>
        <time>2012-05-02T14:12:35Z</time>
      </trkpt>
      <trkpt lat="45.63902" lon="5.70611">
        <ele>895.80004882812</ele>
        <time>2012-05-02T14:12:49Z</time>
      </trkpt>
      <trkpt lat="45.63912" lon="5.70634">
        <ele>898.19995117188</ele>
        <time>2012-05-02T14:13:02Z</time>
      </trkpt>
      <trkpt lat="45.63923" lon="5.70656">
        <ele>905.19995117188</ele>
        <time>2012-05-02T14:13:23Z</time>
      </trkpt>
      <trkpt lat="45.63938" lon="5.70675">
        <ele>906.80004882812</ele>
        <time>2012-05-02T14:13:37Z</time>
      </trkpt>
      <trkpt lat="45.63954" lon="5.70673">
        <ele>908.90002441406</ele>
        <time>2012-05-02T14:14:00Z</time>
      </trkpt>
      <trkpt lat="45.63963" lon="5.70648">
        <ele>912.59997558594</ele>
        <time>2012-05-02T14:14:19Z</time>
      </trkpt>
      <trkpt lat="45.6398" lon="5.70642">
        <ele>915.5</ele>
        <time>2012-05-02T14:14:38Z</time>
      </trkpt>
      <trkpt lat="45.63999" lon="5.70644">
        <ele>916.30004882812</ele>
        <time>2012-05-02T14:14:51Z</time>
      </trkpt>
      <trkpt lat="45.64018" lon="5.70637">
        <ele>917.30004882812</ele>
        <time>2012-05-02T14:15:08Z</time>
      </trkpt>
      <trkpt lat="45.64038" lon="5.70629">
        <ele>917.19995117188</ele>
        <time>2012-05-02T14:15:19Z</time>
      </trkpt>
      <trkpt lat="45.64057" lon="5.70627">
        <ele>917.40002441406</ele>
        <time>2012-05-02T14:15:32Z</time>
      </trkpt>
      <trkpt lat="45.64086" lon="5.7063">
        <ele>916.80004882812</ele>
        <time>2012-05-02T14:15:55Z</time>
      </trkpt>
      <trkpt lat="45.64099" lon="5.70632">
        <ele>916.40002441406</ele>
        <time>2012-05-02T14:16:23Z</time>
      </trkpt>
      <trkpt lat="45.64108" lon="5.70631">
        <ele>914.40002441406</ele>
        <time>2012-05-02T14:16:34Z</time>
      </trkpt>
      <trkpt lat="45.64127" lon="5.70626">
        <ele>912.59997558594</ele>
        <time>2012-05-02T14:16:51Z</time>
      </trkpt>
      <trkpt lat="45.64143" lon="5.70641">
        <ele>911.40002441406</ele>
        <time>2012-05-02T14:17:05Z</time>
      </trkpt>
      <trkpt lat="45.64146" lon="5.70654">
        <ele>910.30004882812</ele>
        <time>2012-05-02T14:17:15Z</time>
      </trkpt>
      <trkpt lat="45.64155" lon="5.70655">
        <ele>906.09997558594</ele>
        <time>2012-05-02T14:17:34Z</time>
      </trkpt>
      <trkpt lat="45.64157" lon="5.70668">
        <ele>905</ele>
        <time>2012-05-02T14:17:44Z</time>
      </trkpt>
      <trkpt lat="45.64146" lon="5.7069">
        <ele>903.40002441406</ele>
        <time>2012-05-02T14:18:18Z</time>
      </trkpt>
      <trkpt lat="45.64132" lon="5.70709">
        <ele>902.59997558594</ele>
        <time>2012-05-02T14:18:32Z</time>
      </trkpt>
      <trkpt lat="45.64118" lon="5.70728">
        <ele>903.19995117188</ele>
        <time>2012-05-02T14:18:47Z</time>
      </trkpt>
      <trkpt lat="45.6411" lon="5.70751">
        <ele>902.40002441406</ele>
        <time>2012-05-02T14:19:01Z</time>
      </trkpt>
      <trkpt lat="45.64087" lon="5.70779">
        <ele>899.90002441406</ele>
        <time>2012-05-02T14:19:24Z</time>
      </trkpt>
      <trkpt lat="45.64073" lon="5.70798">
        <ele>899.09997558594</ele>
        <time>2012-05-02T14:19:38Z</time>
      </trkpt>
      <trkpt lat="45.64056" lon="5.70832">
        <ele>896.40002441406</ele>
        <time>2012-05-02T14:20:03Z</time>
      </trkpt>
      <trkpt lat="45.64045" lon="5.70853">
        <ele>894.30004882812</ele>
        <time>2012-05-02T14:20:16Z</time>
      </trkpt>
      <trkpt lat="45.64032" lon="5.70873">
        <ele>894.5</ele>
        <time>2012-05-02T14:20:29Z</time>
      </trkpt>
      <trkpt lat="45.64022" lon="5.7091">
        <ele>890.5</ele>
        <time>2012-05-02T14:20:53Z</time>
      </trkpt>
      <trkpt lat="45.64014" lon="5.70936">
        <ele>887.90002441406</ele>
        <time>2012-05-02T14:21:09Z</time>
      </trkpt>
      <trkpt lat="45.64013" lon="5.70962">
        <ele>886.90002441406</ele>
        <time>2012-05-02T14:21:24Z</time>
      </trkpt>
      <trkpt lat="45.64011" lon="5.70991">
        <ele>885.5</ele>
        <time>2012-05-02T14:21:37Z</time>
      </trkpt>
      <trkpt lat="45.64002" lon="5.71014">
        <ele>881.80004882812</ele>
        <time>2012-05-02T14:21:50Z</time>
      </trkpt>
      <trkpt lat="45.63989" lon="5.7105">
        <ele>877.80004882812</ele>
        <time>2012-05-02T14:22:13Z</time>
      </trkpt>
      <trkpt lat="45.63978" lon="5.71073">
        <ele>875.69995117188</ele>
        <time>2012-05-02T14:22:27Z</time>
      </trkpt>
      <trkpt lat="45.63969" lon="5.71097">
        <ele>872.30004882812</ele>
        <time>2012-05-02T14:22:42Z</time>
      </trkpt>
      <trkpt lat="45.63966" lon="5.71124">
        <ele>869.40002441406</ele>
        <time>2012-05-02T14:22:56Z</time>
      </trkpt>
      <trkpt lat="45.63959" lon="5.71148">
        <ele>867.09997558594</ele>
        <time>2012-05-02T14:23:09Z</time>
      </trkpt>
      <trkpt lat="45.63955" lon="5.71173">
        <ele>865.90002441406</ele>
        <time>2012-05-02T14:23:22Z</time>
      </trkpt>
      <trkpt lat="45.63954" lon="5.71187">
        <ele>864</ele>
        <time>2012-05-02T14:24:11Z</time>
      </trkpt>
      <trkpt lat="45.63964" lon="5.71248">
        <ele>855.09997558594</ele>
        <time>2012-05-02T14:24:33Z</time>
      </trkpt>
      <trkpt lat="45.63946" lon="5.71272">
        <ele>862.80004882812</ele>
        <time>2012-05-02T14:24:52Z</time>
      </trkpt>
      <trkpt lat="45.63928" lon="5.71277">
        <ele>862.19995117188</ele>
        <time>2012-05-02T14:25:04Z</time>
      </trkpt>
      <trkpt lat="45.63908" lon="5.71276">
        <ele>865.09997558594</ele>
        <time>2012-05-02T14:25:17Z</time>
      </trkpt>
      <trkpt lat="45.63898" lon="5.71273">
        <ele>868</ele>
        <time>2012-05-02T14:25:24Z</time>
      </trkpt>
      <trkpt lat="45.63889" lon="5.71269">
        <ele>870</ele>
        <time>2012-05-02T14:25:31Z</time>
      </trkpt>
      <trkpt lat="45.6388" lon="5.71265">
        <ele>871.59997558594</ele>
        <time>2012-05-02T14:25:39Z</time>
      </trkpt>
      <trkpt lat="45.63862" lon="5.71265">
        <ele>869.30004882812</ele>
        <time>2012-05-02T14:25:59Z</time>
      </trkpt>
      <trkpt lat="45.63844" lon="5.71279">
        <ele>869.19995117188</ele>
        <time>2012-05-02T14:26:15Z</time>
      </trkpt>
      <trkpt lat="45.63827" lon="5.71291">
        <ele>870.59997558594</ele>
        <time>2012-05-02T14:26:25Z</time>
      </trkpt>
      <trkpt lat="45.63811" lon="5.71305">
        <ele>870.5</ele>
        <time>2012-05-02T14:26:36Z</time>
      </trkpt>
      <trkpt lat="45.63795" lon="5.71321">
        <ele>870.80004882812</ele>
        <time>2012-05-02T14:26:48Z</time>
      </trkpt>
      <trkpt lat="45.63777" lon="5.71326">
        <ele>872.09997558594</ele>
        <time>2012-05-02T14:27:01Z</time>
      </trkpt>
      <trkpt lat="45.63758" lon="5.71322">
        <ele>872.5</ele>
        <time>2012-05-02T14:27:14Z</time>
      </trkpt>
      <trkpt lat="45.63731" lon="5.71306">
        <ele>869.19995117188</ele>
        <time>2012-05-02T14:27:34Z</time>
      </trkpt>
      <trkpt lat="45.63714" lon="5.71293">
        <ele>871.40002441406</ele>
        <time>2012-05-02T14:27:48Z</time>
      </trkpt>
      <trkpt lat="45.63696" lon="5.71281">
        <ele>873.30004882812</ele>
        <time>2012-05-02T14:28:03Z</time>
      </trkpt>
      <trkpt lat="45.63677" lon="5.71275">
        <ele>874</ele>
        <time>2012-05-02T14:28:16Z</time>
      </trkpt>
      <trkpt lat="45.63659" lon="5.71268">
        <ele>868.69995117188</ele>
        <time>2012-05-02T14:28:29Z</time>
      </trkpt>
      <trkpt lat="45.63644" lon="5.71251">
        <ele>864.5</ele>
        <time>2012-05-02T14:28:41Z</time>
      </trkpt>
      <trkpt lat="45.63636" lon="5.71257">
        <ele>867.90002441406</ele>
        <time>2012-05-02T14:29:19Z</time>
      </trkpt>
      <trkpt lat="45.63585" lon="5.71241">
        <ele>866.40002441406</ele>
        <time>2012-05-02T14:29:48Z</time>
      </trkpt>
      <trkpt lat="45.63555" lon="5.71233">
        <ele>869.69995117188</ele>
        <time>2012-05-02T14:30:13Z</time>
      </trkpt>
      <trkpt lat="45.63527" lon="5.71236">
        <ele>871.30004882812</ele>
        <time>2012-05-02T14:30:37Z</time>
      </trkpt>
      <trkpt lat="45.63502" lon="5.71255">
        <ele>869.90002441406</ele>
        <time>2012-05-02T14:31:02Z</time>
      </trkpt>
      <trkpt lat="45.63489" lon="5.71258">
        <ele>855.59997558594</ele>
        <time>2012-05-02T14:32:53Z</time>
      </trkpt>
      <trkpt lat="45.63492" lon="5.71246">
        <ele>854.40002441406</ele>
        <time>2012-05-02T14:34:46Z</time>
      </trkpt>
      <trkpt lat="45.63458" lon="5.71272">
        <ele>858.69995117188</ele>
        <time>2012-05-02T14:40:31Z</time>
      </trkpt>
      <trkpt lat="45.6343" lon="5.71287">
        <ele>860.5</ele>
        <time>2012-05-02T14:40:53Z</time>
      </trkpt>
      <trkpt lat="45.63407" lon="5.71311">
        <ele>858.59997558594</ele>
        <time>2012-05-02T14:41:16Z</time>
      </trkpt>
      <trkpt lat="45.63381" lon="5.71332">
        <ele>855</ele>
        <time>2012-05-02T14:41:37Z</time>
      </trkpt>
      <trkpt lat="45.63354" lon="5.71335">
        <ele>850.09997558594</ele>
        <time>2012-05-02T14:41:57Z</time>
      </trkpt>
      <trkpt lat="45.63337" lon="5.71327">
        <ele>848.5</ele>
        <time>2012-05-02T14:42:15Z</time>
      </trkpt>
      <trkpt lat="45.63322" lon="5.71344">
        <ele>843.40002441406</ele>
        <time>2012-05-02T14:42:39Z</time>
      </trkpt>
      <trkpt lat="45.63316" lon="5.71354">
        <ele>842.90002441406</ele>
        <time>2012-05-02T14:42:46Z</time>
      </trkpt>
      <trkpt lat="45.63305" lon="5.71398">
        <ele>839.30004882812</ele>
        <time>2012-05-02T14:43:00Z</time>
      </trkpt>
      <trkpt lat="45.63311" lon="5.71432">
        <ele>835.30004882812</ele>
        <time>2012-05-02T14:43:06Z</time>
      </trkpt>
      <trkpt lat="45.63321" lon="5.71464">
        <ele>832.90002441406</ele>
        <time>2012-05-02T14:43:12Z</time>
      </trkpt>
      <trkpt lat="45.63339" lon="5.71499">
        <ele>829.59997558594</ele>
        <time>2012-05-02T14:43:27Z</time>
      </trkpt>
      <trkpt lat="45.63337" lon="5.71527">
        <ele>831.19995117188</ele>
        <time>2012-05-02T14:43:39Z</time>
      </trkpt>
      <trkpt lat="45.63333" lon="5.71553">
        <ele>828.69995117188</ele>
        <time>2012-05-02T14:43:54Z</time>
      </trkpt>
      <trkpt lat="45.63333" lon="5.71593">
        <ele>824.59997558594</ele>
        <time>2012-05-02T14:44:22Z</time>
      </trkpt>
      <trkpt lat="45.6333" lon="5.71659">
        <ele>820.5</ele>
        <time>2012-05-02T14:44:57Z</time>
      </trkpt>
      <trkpt lat="45.6333" lon="5.71701">
        <ele>816.40002441406</ele>
        <time>2012-05-02T14:45:20Z</time>
      </trkpt>
      <trkpt lat="45.63331" lon="5.71741">
        <ele>814.30004882812</ele>
        <time>2012-05-02T14:45:39Z</time>
      </trkpt>
      <trkpt lat="45.63322" lon="5.7178">
        <ele>812.30004882812</ele>
        <time>2012-05-02T14:46:00Z</time>
      </trkpt>
      <trkpt lat="45.63309" lon="5.71802">
        <ele>811.59997558594</ele>
        <time>2012-05-02T14:46:12Z</time>
      </trkpt>
      <trkpt lat="45.63294" lon="5.7182">
        <ele>809.59997558594</ele>
        <time>2012-05-02T14:46:24Z</time>
      </trkpt>
      <trkpt lat="45.63278" lon="5.71856">
        <ele>806.69995117188</ele>
        <time>2012-05-02T14:46:53Z</time>
      </trkpt>
      <trkpt lat="45.63268" lon="5.71877">
        <ele>803.90002441406</ele>
        <time>2012-05-02T14:47:09Z</time>
      </trkpt>
      <trkpt lat="45.63254" lon="5.71896">
        <ele>801.5</ele>
        <time>2012-05-02T14:47:26Z</time>
      </trkpt>
      <trkpt lat="45.6324" lon="5.71915">
        <ele>798.40002441406</ele>
        <time>2012-05-02T14:47:46Z</time>
      </trkpt>
      <trkpt lat="45.63222" lon="5.71925">
        <ele>796.30004882812</ele>
        <time>2012-05-02T14:48:05Z</time>
      </trkpt>
      <trkpt lat="45.632" lon="5.7195">
        <ele>795.09997558594</ele>
        <time>2012-05-02T14:48:27Z</time>
      </trkpt>
      <trkpt lat="45.63188" lon="5.71972">
        <ele>794.90002441406</ele>
        <time>2012-05-02T14:48:42Z</time>
      </trkpt>
      <trkpt lat="45.63167" lon="5.72">
        <ele>793.40002441406</ele>
        <time>2012-05-02T14:49:06Z</time>
      </trkpt>
      <trkpt lat="45.63142" lon="5.72018">
        <ele>791.80004882812</ele>
        <time>2012-05-02T14:49:27Z</time>
      </trkpt>
      <trkpt lat="45.63115" lon="5.72028">
        <ele>790.30004882812</ele>
        <time>2012-05-02T14:49:46Z</time>
      </trkpt>
      <trkpt lat="45.63087" lon="5.72036">
        <ele>786.09997558594</ele>
        <time>2012-05-02T14:50:09Z</time>
      </trkpt>
      <trkpt lat="45.63059" lon="5.72046">
        <ele>786.5</ele>
        <time>2012-05-02T14:50:28Z</time>
      </trkpt>
      <trkpt lat="45.63033" lon="5.72062">
        <ele>786.40002441406</ele>
        <time>2012-05-02T14:50:53Z</time>
      </trkpt>
      <trkpt lat="45.63018" lon="5.7208">
        <ele>783.59997558594</ele>
        <time>2012-05-02T14:51:14Z</time>
      </trkpt>
      <trkpt lat="45.63" lon="5.72111">
        <ele>775.5</ele>
        <time>2012-05-02T14:51:38Z</time>
      </trkpt>
      <trkpt lat="45.62984" lon="5.72128">
        <ele>772.30004882812</ele>
        <time>2012-05-02T14:51:54Z</time>
      </trkpt>
      <trkpt lat="45.62971" lon="5.7215">
        <ele>769.69995117188</ele>
        <time>2012-05-02T14:52:11Z</time>
      </trkpt>
      <trkpt lat="45.62959" lon="5.72171">
        <ele>767.69995117188</ele>
        <time>2012-05-02T14:52:27Z</time>
      </trkpt>
      <trkpt lat="45.62948" lon="5.72193">
        <ele>766.40002441406</ele>
        <time>2012-05-02T14:52:42Z</time>
      </trkpt>
      <trkpt lat="45.62934" lon="5.72227">
        <ele>764.09997558594</ele>
        <time>2012-05-02T14:53:08Z</time>
      </trkpt>
      <trkpt lat="45.62926" lon="5.72266">
        <ele>761.59997558594</ele>
        <time>2012-05-02T14:53:30Z</time>
      </trkpt>
      <trkpt lat="45.62912" lon="5.72301">
        <ele>758.5</ele>
        <time>2012-05-02T14:53:52Z</time>
      </trkpt>
      <trkpt lat="45.62898" lon="5.7232">
        <ele>757.19995117188</ele>
        <time>2012-05-02T14:54:04Z</time>
      </trkpt>
      <trkpt lat="45.62886" lon="5.72343">
        <ele>755.59997558594</ele>
        <time>2012-05-02T14:54:18Z</time>
      </trkpt>
      <trkpt lat="45.6287" lon="5.72378">
        <ele>752.59997558594</ele>
        <time>2012-05-02T14:54:45Z</time>
      </trkpt>
      <trkpt lat="45.6285" lon="5.72409">
        <ele>751.19995117188</ele>
        <time>2012-05-02T14:55:00Z</time>
      </trkpt>
      <trkpt lat="45.62828" lon="5.72435">
        <ele>751.30004882812</ele>
        <time>2012-05-02T14:55:21Z</time>
      </trkpt>
      <trkpt lat="45.62802" lon="5.72452">
        <ele>748.90002441406</ele>
        <time>2012-05-02T14:55:44Z</time>
      </trkpt>
      <trkpt lat="45.62773" lon="5.72465">
        <ele>745.19995117188</ele>
        <time>2012-05-02T14:56:03Z</time>
      </trkpt>
      <trkpt lat="45.62747" lon="5.72477">
        <ele>744.19995117188</ele>
        <time>2012-05-02T14:56:21Z</time>
      </trkpt>
      <trkpt lat="45.62729" lon="5.72484">
        <ele>742.30004882812</ele>
        <time>2012-05-02T14:56:32Z</time>
      </trkpt>
      <trkpt lat="45.62712" lon="5.72495">
        <ele>742.80004882812</ele>
        <time>2012-05-02T14:56:46Z</time>
      </trkpt>
      <trkpt lat="45.62696" lon="5.7251">
        <ele>741.69995117188</ele>
        <time>2012-05-02T14:57:00Z</time>
      </trkpt>
      <trkpt lat="45.62682" lon="5.72528">
        <ele>742.19995117188</ele>
        <time>2012-05-02T14:57:17Z</time>
      </trkpt>
      <trkpt lat="45.62664" lon="5.72538">
        <ele>741.40002441406</ele>
        <time>2012-05-02T14:57:31Z</time>
      </trkpt>
      <trkpt lat="45.62656" lon="5.72545">
        <ele>740.69995117188</ele>
        <time>2012-05-02T14:57:38Z</time>
      </trkpt>
      <trkpt lat="45.62644" lon="5.72565">
        <ele>738.09997558594</ele>
        <time>2012-05-02T14:57:53Z</time>
      </trkpt>
      <trkpt lat="45.62626" lon="5.72578">
        <ele>735.09997558594</ele>
        <time>2012-05-02T14:58:07Z</time>
      </trkpt>
      <trkpt lat="45.6261" lon="5.7259">
        <ele>733.30004882812</ele>
        <time>2012-05-02T14:58:20Z</time>
      </trkpt>
      <trkpt lat="45.62593" lon="5.72602">
        <ele>733.40002441406</ele>
        <time>2012-05-02T14:58:33Z</time>
      </trkpt>
      <trkpt lat="45.62576" lon="5.72615">
        <ele>731.69995117188</ele>
        <time>2012-05-02T14:58:47Z</time>
      </trkpt>
      <trkpt lat="45.62558" lon="5.72625">
        <ele>730.19995117188</ele>
        <time>2012-05-02T14:59:00Z</time>
      </trkpt>
      <trkpt lat="45.62577" lon="5.72626">
        <ele>726.5</ele>
        <time>2012-05-02T14:59:26Z</time>
      </trkpt>
      <trkpt lat="45.62596" lon="5.72621">
        <ele>725.80004882812</ele>
        <time>2012-05-02T14:59:36Z</time>
      </trkpt>
      <trkpt lat="45.62616" lon="5.72615">
        <ele>725.90002441406</ele>
        <time>2012-05-02T14:59:49Z</time>
      </trkpt>
      <trkpt lat="45.62635" lon="5.72612">
        <ele>726.80004882812</ele>
        <time>2012-05-02T15:00:02Z</time>
      </trkpt>
      <trkpt lat="45.62654" lon="5.72608">
        <ele>727.90002441406</ele>
        <time>2012-05-02T15:00:17Z</time>
      </trkpt>
      <trkpt lat="45.6265" lon="5.72629">
        <ele>718</ele>
        <time>2012-05-02T15:01:04Z</time>
      </trkpt>
      <trkpt lat="45.62638" lon="5.7265">
        <ele>718</ele>
        <time>2012-05-02T15:01:19Z</time>
      </trkpt>
    </trkseg>
  </trk>
</gpx>